Time,TemperatureF,DewpointF,PressureIn,WindDirection,WindDirectionDegrees,WindSpeedMPH,WindSpeedGustMPH,Humidity,HourlyPrecipIn,Conditions,Clouds,dailyrainin,SoftwareType,DateUTC
2013-07-21 00:01:00,77.4,71.8,29.83,SW,216,0.0,0.0,83,0.00,,---,0.00,VWS V13.01,2013-07-21 04:01:00,
2013-07-21 00:06:00,76.9,71.7,29.82,SW,216,0.0,1.0,84,0.00,,---,0.00,VWS V13.01,2013-07-21 04:06:00,
2013-07-21 00:11:00,76.4,71.6,29.83,SW,216,0.0,0.0,85,0.00,,---,0.00,VWS V13.01,2013-07-21 04:11:00,
2013-07-21 00:16:00,76.1,71.9,29.83,SW,216,0.0,1.0,87,0.00,,---,0.00,VWS V13.01,2013-07-21 04:16:00,
2013-07-21 00:21:00,75.8,72.0,29.84,SW,220,0.0,0.0,88,0.00,,---,0.00,VWS V13.01,2013-07-21 04:21:00,
2013-07-21 00:26:00,75.7,71.9,29.84,SW,220,0.0,0.0,88,0.00,,---,0.00,VWS V13.01,2013-07-21 04:26:00,
2013-07-21 00:31:00,75.5,72.0,29.84,SW,220,0.0,1.0,89,0.00,,---,0.00,VWS V13.01,2013-07-21 04:31:00,
2013-07-21 00:36:00,75.2,71.4,29.85,SW,220,0.0,0.0,88,0.00,,---,0.00,VWS V13.01,2013-07-21 04:36:00,
2013-07-21 00:41:00,75.1,71.6,29.85,SW,220,0.0,0.0,89,0.00,,---,0.00,VWS V13.01,2013-07-21 04:41:00,
2013-07-21 00:46:00,74.9,71.4,29.85,SW,220,0.0,0.0,89,0.00,,---,0.00,VWS V13.01,2013-07-21 04:46:00,
2013-07-21 00:50:00,74.7,71.6,29.85,SW,225,1.0,5.0,90,0.00,,---,0.00,VWS V13.01,2013-07-21 04:50:00,
2013-07-21 00:51:00,74.7,71.6,29.85,SW,219,1.0,1.0,90,0.00,,---,0.00,VWS V13.01,2013-07-21 04:51:00,
2013-07-21 00:52:00,74.7,71.6,29.86,SW,225,0.0,1.0,90,0.00,,---,0.00,VWS V13.01,2013-07-21 04:52:00,
2013-07-21 00:53:00,74.6,71.5,29.86,SW,225,0.0,1.0,90,0.00,,---,0.00,VWS V13.01,2013-07-21 04:53:00,
2013-07-21 00:54:00,74.6,71.5,29.86,SW,225,0.0,1.0,90,0.00,,---,0.00,VWS V13.01,2013-07-21 04:54:00,
2013-07-21 00:55:00,74.6,71.5,29.86,SW,225,0.0,1.0,90,0.00,,---,0.00,VWS V13.01,2013-07-21 04:55:00,
2013-07-21 00:56:00,74.5,71.4,29.85,SW,225,1.0,3.0,90,0.00,,---,0.00,VWS V13.01,2013-07-21 04:56:00,
2013-07-21 00:57:00,74.5,71.4,29.85,SW,225,2.0,4.0,90,0.00,,---,0.00,VWS V13.01,2013-07-21 04:57:00,
2013-07-21 00:58:00,74.4,71.3,29.85,SW,225,0.0,1.0,90,0.00,,---,0.00,VWS V13.01,2013-07-21 04:58:00,
2013-07-21 00:59:00,74.4,70.9,29.85,SSW,202,2.0,5.0,89,0.00,,---,0.00,VWS V13.01,2013-07-21 04:59:00,
2013-07-21 01:00:00,74.4,71.3,29.85,SSW,202,1.0,4.0,90,0.00,,---,0.00,VWS V13.01,2013-07-21 05:00:00,
2013-07-21 01:01:00,74.3,71.2,29.85,SSW,202,0.0,0.0,90,0.00,,---,0.00,VWS V13.01,2013-07-21 05:01:00,
2013-07-21 01:02:00,74.3,71.2,29.85,SSW,202,0.0,1.0,90,0.00,,---,0.00,VWS V13.01,2013-07-21 05:02:00,
2013-07-21 01:03:00,74.2,71.1,29.85,SSW,202,0.0,0.0,90,0.00,,---,0.00,VWS V13.01,2013-07-21 05:03:00,
2013-07-21 01:04:00,74.2,71.1,29.85,SSW,202,0.0,1.0,90,0.00,,---,0.00,VWS V13.01,2013-07-21 05:04:00,
2013-07-21 01:05:00,74.2,71.1,29.85,SSW,202,0.0,0.0,90,0.00,,---,0.00,VWS V13.01,2013-07-21 05:05:00,
2013-07-21 01:06:00,74.2,71.1,29.85,SSW,202,1.0,4.0,90,0.00,,---,0.00,VWS V13.01,2013-07-21 05:06:00,
2013-07-21 01:07:00,74.2,71.1,29.85,SSW,202,0.0,0.0,90,0.00,,---,0.00,VWS V13.01,2013-07-21 05:07:00,
2013-07-21 01:08:00,74.2,71.1,29.85,SSW,202,0.0,0.0,90,0.00,,---,0.00,VWS V13.01,2013-07-21 05:08:00,
2013-07-21 01:09:00,74.2,71.1,29.85,SSW,202,0.0,1.0,90,0.00,,---,0.00,VWS V13.01,2013-07-21 05:09:00,
2013-07-21 01:10:00,74.1,71.0,29.85,SSW,202,0.0,1.0,90,0.00,,---,0.00,VWS V13.01,2013-07-21 05:10:00,
2013-07-21 01:11:00,74.1,71.0,29.85,SSW,202,0.0,0.0,90,0.00,,---,0.00,VWS V13.01,2013-07-21 05:11:00,
2013-07-21 01:12:00,74.1,71.0,29.84,SSW,202,0.0,1.0,90,0.00,,---,0.00,VWS V13.01,2013-07-21 05:12:00,
2013-07-21 01:13:00,74.1,71.0,29.84,SSW,202,0.0,0.0,90,0.00,,---,0.00,VWS V13.01,2013-07-21 05:13:00,
2013-07-21 01:14:00,74.0,70.9,29.84,SSW,202,0.0,0.0,90,0.00,,---,0.00,VWS V13.01,2013-07-21 05:14:00,
2013-07-21 01:15:00,74.0,70.9,29.84,SSW,202,0.0,1.0,90,0.00,,---,0.00,VWS V13.01,2013-07-21 05:15:00,
2013-07-21 01:16:00,74.0,70.9,29.84,SSW,202,0.0,0.0,90,0.00,,---,0.00,VWS V13.01,2013-07-21 05:16:00,
2013-07-21 01:17:00,74.0,70.9,29.84,SSW,202,0.0,1.0,90,0.00,,---,0.00,VWS V13.01,2013-07-21 05:17:00,
2013-07-21 01:18:00,74.0,70.9,29.84,SSW,202,0.0,0.0,90,0.00,,---,0.00,VWS V13.01,2013-07-21 05:18:00,
2013-07-21 01:19:00,74.0,70.9,29.84,SSW,202,0.0,1.0,90,0.00,,---,0.00,VWS V13.01,2013-07-21 05:19:00,
2013-07-21 01:20:00,73.9,70.8,29.84,SSW,202,0.0,0.0,90,0.00,,---,0.00,VWS V13.01,2013-07-21 05:20:00,
2013-07-21 01:21:00,73.9,70.8,29.84,SSW,202,0.0,1.0,90,0.00,,---,0.00,VWS V13.01,2013-07-21 05:21:00,
2013-07-21 01:22:00,73.9,70.8,29.84,SSW,202,1.0,3.0,90,0.00,,---,0.00,VWS V13.01,2013-07-21 05:22:00,
2013-07-21 01:23:00,73.9,70.8,29.85,SSW,202,0.0,2.0,90,0.00,,---,0.00,VWS V13.01,2013-07-21 05:23:00,
2013-07-21 01:24:00,73.9,70.8,29.84,SSW,202,0.0,1.0,90,0.00,,---,0.00,VWS V13.01,2013-07-21 05:24:00,
2013-07-21 01:25:00,73.9,70.8,29.85,SSW,202,0.0,0.0,90,0.00,,---,0.00,VWS V13.01,2013-07-21 05:25:00,
2013-07-21 01:26:00,73.9,70.8,29.85,SSW,202,0.0,0.0,90,0.00,,---,0.00,VWS V13.01,2013-07-21 05:26:00,
2013-07-21 01:27:00,73.9,70.8,29.85,SSW,202,0.0,2.0,90,0.00,,---,0.00,VWS V13.01,2013-07-21 05:27:00,
2013-07-21 01:28:00,73.9,70.8,29.85,SSW,202,0.0,1.0,90,0.00,,---,0.00,VWS V13.01,2013-07-21 05:28:00,
2013-07-21 01:29:00,73.9,70.8,29.85,SSW,202,0.0,0.0,90,0.00,,---,0.00,VWS V13.01,2013-07-21 05:29:00,
2013-07-21 01:30:00,73.9,70.8,29.85,SSW,202,0.0,0.0,90,0.00,,---,0.00,VWS V13.01,2013-07-21 05:30:00,
2013-07-21 01:31:00,73.9,70.8,29.85,SSW,202,0.0,0.0,90,0.00,,---,0.00,VWS V13.01,2013-07-21 05:31:00,
2013-07-21 01:32:00,73.9,71.1,29.85,SSW,202,0.0,0.0,91,0.00,,---,0.00,VWS V13.01,2013-07-21 05:32:00,
2013-07-21 01:33:00,73.9,71.1,29.85,SSW,202,3.0,7.0,91,0.00,,---,0.00,VWS V13.01,2013-07-21 05:33:00,
2013-07-21 01:34:00,73.9,70.8,29.85,SW,225,1.0,3.0,90,0.00,,---,0.00,VWS V13.01,2013-07-21 05:34:00,
2013-07-21 01:35:00,73.9,70.8,29.84,SW,225,0.0,1.0,90,0.00,,---,0.00,VWS V13.01,2013-07-21 05:35:00,
2013-07-21 01:36:00,73.9,70.8,29.84,SW,225,0.0,0.0,90,0.00,,---,0.00,VWS V13.01,2013-07-21 05:36:00,
2013-07-21 01:37:00,73.9,70.8,29.85,SW,225,0.0,1.0,90,0.00,,---,0.00,VWS V13.01,2013-07-21 05:37:00,
2013-07-21 01:38:00,73.9,70.8,29.84,SW,225,0.0,0.0,90,0.00,,---,0.00,VWS V13.01,2013-07-21 05:38:00,
2013-07-21 01:39:00,73.9,70.8,29.84,SW,225,0.0,0.0,90,0.00,,---,0.00,VWS V13.01,2013-07-21 05:39:00,
2013-07-21 01:40:00,73.9,71.1,29.84,SW,225,1.0,6.0,91,0.00,,---,0.00,VWS V13.01,2013-07-21 05:40:00,
2013-07-21 01:41:00,73.9,70.8,29.84,SW,225,0.0,4.0,90,0.00,,---,0.00,VWS V13.01,2013-07-21 05:41:00,
2013-07-21 01:42:00,73.9,70.8,29.84,SW,225,0.0,2.0,90,0.00,,---,0.00,VWS V13.01,2013-07-21 05:42:00,
2013-07-21 01:43:00,73.9,70.8,29.84,SW,225,1.0,3.0,90,0.00,,---,0.00,VWS V13.01,2013-07-21 05:43:00,
2013-07-21 01:44:00,73.8,70.7,29.84,SW,225,1.0,3.0,90,0.00,,---,0.00,VWS V13.01,2013-07-21 05:44:00,
2013-07-21 01:45:00,73.8,70.7,29.84,SW,225,1.0,3.0,90,0.00,,---,0.00,VWS V13.01,2013-07-21 05:45:00,
2013-07-21 01:46:00,73.8,70.7,29.84,SW,225,2.0,3.0,90,0.00,,---,0.00,VWS V13.01,2013-07-21 05:46:00,
2013-07-21 01:47:00,73.8,70.7,29.84,SW,225,1.0,4.0,90,0.00,,---,0.00,VWS V13.01,2013-07-21 05:47:00,
2013-07-21 01:48:00,73.8,70.7,29.83,SW,225,0.0,3.0,90,0.00,,---,0.00,VWS V13.01,2013-07-21 05:48:00,
2013-07-21 01:49:00,73.8,70.7,29.83,SW,225,0.0,2.0,90,0.00,,---,0.00,VWS V13.01,2013-07-21 05:49:00,
2013-07-21 01:50:00,73.8,70.7,29.83,SW,225,0.0,2.0,90,0.00,,---,0.00,VWS V13.01,2013-07-21 05:50:00,
2013-07-21 01:51:00,73.8,70.7,29.84,SW,225,0.0,0.0,90,0.00,,---,0.00,VWS V13.01,2013-07-21 05:51:00,
2013-07-21 01:52:00,73.8,70.7,29.84,SW,225,0.0,1.0,90,0.00,,---,0.00,VWS V13.01,2013-07-21 05:52:00,
2013-07-21 01:53:00,73.7,70.6,29.84,SW,225,0.0,0.0,90,0.00,,---,0.00,VWS V13.01,2013-07-21 05:53:00,
2013-07-21 01:54:00,73.7,70.6,29.84,SW,225,0.0,1.0,90,0.00,,---,0.00,VWS V13.01,2013-07-21 05:54:00,
2013-07-21 01:55:00,73.7,70.6,29.84,SW,225,0.0,3.0,90,0.00,,---,0.00,VWS V13.01,2013-07-21 05:55:00,
2013-07-21 01:56:00,73.7,70.6,29.84,SSW,202,0.0,1.0,90,0.00,,---,0.00,VWS V13.01,2013-07-21 05:56:00,
2013-07-21 01:57:00,73.7,70.6,29.85,SSW,202,0.0,1.0,90,0.00,,---,0.00,VWS V13.01,2013-07-21 05:57:00,
2013-07-21 01:58:00,73.7,70.6,29.84,SW,225,1.0,6.0,90,0.00,,---,0.00,VWS V13.01,2013-07-21 05:58:00,
2013-07-21 01:59:00,73.7,70.6,29.84,SW,225,0.0,2.0,90,0.00,,---,0.00,VWS V13.01,2013-07-21 05:59:00,
2013-07-21 02:00:00,73.7,70.6,29.84,SSW,202,2.0,7.0,90,0.00,,---,0.00,VWS V13.01,2013-07-21 06:00:00,
2013-07-21 02:01:00,73.7,70.6,29.84,SSW,202,3.0,6.0,90,0.00,,---,0.00,VWS V13.01,2013-07-21 06:01:00,
2013-07-21 02:02:00,73.7,70.6,29.84,SSW,202,2.0,4.0,90,0.00,,---,0.00,VWS V13.01,2013-07-21 06:02:00,
2013-07-21 02:03:00,73.7,70.6,29.84,SSW,202,1.0,3.0,90,0.00,,---,0.00,VWS V13.01,2013-07-21 06:03:00,
2013-07-21 02:04:00,73.6,70.5,29.84,SSW,202,2.0,5.0,90,0.00,,---,0.00,VWS V13.01,2013-07-21 06:04:00,
2013-07-21 02:05:00,73.6,70.5,29.84,SSW,202,2.0,5.0,90,0.00,,---,0.00,VWS V13.01,2013-07-21 06:05:00,
2013-07-21 02:06:00,73.6,70.5,29.84,SSW,202,0.0,1.0,90,0.00,,---,0.00,VWS V13.01,2013-07-21 06:06:00,
2013-07-21 02:07:00,73.6,70.5,29.84,SSW,202,1.0,4.0,90,0.00,,---,0.00,VWS V13.01,2013-07-21 06:07:00,
2013-07-21 02:08:00,73.6,70.5,29.84,SSW,202,0.0,1.0,90,0.00,,---,0.00,VWS V13.01,2013-07-21 06:08:00,
2013-07-21 02:09:00,73.6,70.5,29.84,SSW,202,2.0,6.0,90,0.00,,---,0.00,VWS V13.01,2013-07-21 06:09:00,
2013-07-21 02:10:00,73.6,70.5,29.84,SSW,202,1.0,5.0,90,0.00,,---,0.00,VWS V13.01,2013-07-21 06:10:00,
2013-07-21 02:11:00,73.6,70.5,29.84,SSW,202,2.0,5.0,90,0.00,,---,0.00,VWS V13.01,2013-07-21 06:11:00,
2013-07-21 02:12:00,73.6,70.5,29.84,SSW,202,1.0,3.0,90,0.00,,---,0.00,VWS V13.01,2013-07-21 06:12:00,
2013-07-21 02:13:00,73.6,70.5,29.84,SSW,202,2.0,5.0,90,0.00,,---,0.00,VWS V13.01,2013-07-21 06:13:00,
2013-07-21 02:14:00,73.6,70.5,29.84,SSW,202,1.0,3.0,90,0.00,,---,0.00,VWS V13.01,2013-07-21 06:14:00,
2013-07-21 02:15:00,73.6,70.5,29.84,SSW,202,3.0,7.0,90,0.00,,---,0.00,VWS V13.01,2013-07-21 06:15:00,
2013-07-21 02:16:00,73.5,70.7,29.84,SSW,202,0.0,2.0,91,0.00,,---,0.00,VWS V13.01,2013-07-21 06:16:00,
2013-07-21 02:17:00,73.5,70.7,29.84,SSW,202,0.0,2.0,91,0.00,,---,0.00,VWS V13.01,2013-07-21 06:17:00,
2013-07-21 02:18:00,73.6,70.8,29.84,SSW,202,0.0,0.0,91,0.00,,---,0.00,VWS V13.01,2013-07-21 06:18:00,
2013-07-21 02:19:00,73.6,70.8,29.84,SSW,202,0.0,1.0,91,0.00,,---,0.00,VWS V13.01,2013-07-21 06:19:00,
2013-07-21 02:20:00,73.6,70.8,29.84,SSW,202,0.0,2.0,91,0.00,,---,0.00,VWS V13.01,2013-07-21 06:20:00,
2013-07-21 02:21:00,73.5,70.7,29.84,SSW,202,0.0,0.0,91,0.00,,---,0.00,VWS V13.01,2013-07-21 06:21:00,
2013-07-21 02:22:00,73.6,70.8,29.84,SSW,202,0.0,0.0,91,0.00,,---,0.00,VWS V13.01,2013-07-21 06:22:00,
2013-07-21 02:23:00,73.6,70.8,29.84,SSW,202,0.0,0.0,91,0.00,,---,0.00,VWS V13.01,2013-07-21 06:23:00,
2013-07-21 02:24:00,73.6,70.8,29.84,SSW,202,1.0,3.0,91,0.00,,---,0.00,VWS V13.01,2013-07-21 06:24:00,
2013-07-21 02:25:00,73.6,70.8,29.84,SSW,202,0.0,0.0,91,0.00,,---,0.00,VWS V13.01,2013-07-21 06:25:00,
2013-07-21 02:26:00,73.6,70.8,29.84,SSW,202,0.0,1.0,91,0.00,,---,0.00,VWS V13.01,2013-07-21 06:26:00,
2013-07-21 02:27:00,73.6,70.5,29.84,SSW,202,0.0,1.0,90,0.00,,---,0.00,VWS V13.01,2013-07-21 06:27:00,
2013-07-21 02:28:00,73.6,70.5,29.84,SSW,202,0.0,0.0,90,0.00,,---,0.00,VWS V13.01,2013-07-21 06:28:00,
2013-07-21 02:29:00,73.6,70.5,29.84,SSW,202,0.0,0.0,90,0.00,,---,0.00,VWS V13.01,2013-07-21 06:29:00,
2013-07-21 02:30:00,73.6,70.5,29.84,SSW,202,0.0,0.0,90,0.00,,---,0.00,VWS V13.01,2013-07-21 06:30:00,
2013-07-21 02:31:00,73.6,70.5,29.84,SSW,202,0.0,0.0,90,0.00,,---,0.00,VWS V13.01,2013-07-21 06:31:00,
2013-07-21 02:32:00,73.6,70.5,29.84,SSW,202,0.0,0.0,90,0.00,,---,0.00,VWS V13.01,2013-07-21 06:32:00,
2013-07-21 02:33:00,73.6,70.5,29.84,SSW,202,0.0,0.0,90,0.00,,---,0.00,VWS V13.01,2013-07-21 06:33:00,
2013-07-21 02:34:00,73.6,70.5,29.84,SSW,202,0.0,0.0,90,0.00,,---,0.00,VWS V13.01,2013-07-21 06:34:00,
2013-07-21 02:35:00,73.6,70.5,29.83,SSW,202,1.0,6.0,90,0.00,,---,0.00,VWS V13.01,2013-07-21 06:35:00,
2013-07-21 02:36:00,73.6,70.5,29.83,SSW,202,1.0,3.0,90,0.00,,---,0.00,VWS V13.01,2013-07-21 06:36:00,
2013-07-21 02:37:00,73.6,70.5,29.83,SSW,202,0.0,0.0,90,0.00,,---,0.00,VWS V13.01,2013-07-21 06:37:00,
2013-07-21 02:38:00,73.6,70.5,29.83,SSW,202,1.0,4.0,90,0.00,,---,0.00,VWS V13.01,2013-07-21 06:38:00,
2013-07-21 02:39:00,73.6,70.5,29.83,SSW,202,1.0,5.0,90,0.00,,---,0.00,VWS V13.01,2013-07-21 06:39:00,
2013-07-21 02:40:00,73.6,70.5,29.83,SSW,202,0.0,0.0,90,0.00,,---,0.00,VWS V13.01,2013-07-21 06:40:00,
2013-07-21 02:41:00,73.7,70.6,29.83,SSW,202,2.0,5.0,90,0.00,,---,0.00,VWS V13.01,2013-07-21 06:41:00,
2013-07-21 02:42:00,73.7,70.6,29.83,SSW,202,1.0,3.0,90,0.00,,---,0.00,VWS V13.01,2013-07-21 06:42:00,
2013-07-21 02:43:00,73.7,70.6,29.83,SSW,202,0.0,0.0,90,0.00,,---,0.00,VWS V13.01,2013-07-21 06:43:00,
2013-07-21 02:44:00,73.7,70.6,29.83,SSW,202,0.0,0.0,90,0.00,,---,0.00,VWS V13.01,2013-07-21 06:44:00,
2013-07-21 02:45:00,73.7,70.6,29.83,SSW,202,0.0,0.0,90,0.00,,---,0.00,VWS V13.01,2013-07-21 06:45:00,
2013-07-21 02:46:00,73.7,70.6,29.83,SSW,202,0.0,2.0,90,0.00,,---,0.00,VWS V13.01,2013-07-21 06:46:00,
2013-07-21 02:47:00,73.7,70.6,29.83,WSW,248,0.0,2.0,90,0.00,,---,0.00,VWS V13.01,2013-07-21 06:47:00,
2013-07-21 02:48:00,73.7,70.9,29.83,WSW,248,0.0,0.0,91,0.00,,---,0.00,VWS V13.01,2013-07-21 06:48:00,
2013-07-21 02:49:00,73.7,70.6,29.83,WSW,248,0.0,0.0,90,0.00,,---,0.00,VWS V13.01,2013-07-21 06:49:00,
2013-07-21 02:50:00,73.7,70.9,29.83,WSW,248,0.0,1.0,91,0.00,,---,0.00,VWS V13.01,2013-07-21 06:50:00,
2013-07-21 02:51:00,73.7,70.6,29.83,WSW,248,0.0,2.0,90,0.00,,---,0.00,VWS V13.01,2013-07-21 06:51:00,
2013-07-21 02:52:00,73.7,70.6,29.83,WSW,248,0.0,1.0,90,0.00,,---,0.00,VWS V13.01,2013-07-21 06:52:00,
2013-07-21 02:53:00,73.7,70.6,29.83,WSW,248,0.0,0.0,90,0.00,,---,0.00,VWS V13.01,2013-07-21 06:53:00,
2013-07-21 02:54:00,73.7,70.6,29.83,WSW,248,0.0,2.0,90,0.00,,---,0.00,VWS V13.01,2013-07-21 06:54:00,
2013-07-21 02:55:00,73.7,70.6,29.82,WSW,248,0.0,1.0,90,0.00,,---,0.00,VWS V13.01,2013-07-21 06:55:00,
2013-07-21 02:56:00,73.7,70.6,29.82,WSW,248,0.0,1.0,90,0.00,,---,0.00,VWS V13.01,2013-07-21 06:56:00,
2013-07-21 02:57:00,73.7,70.6,29.82,WSW,248,1.0,3.0,90,0.00,,---,0.00,VWS V13.01,2013-07-21 06:57:00,
2013-07-21 02:58:00,73.7,70.6,29.82,WSW,248,2.0,3.0,90,0.00,,---,0.00,VWS V13.01,2013-07-21 06:58:00,
2013-07-21 02:59:00,73.7,70.6,29.82,WSW,248,0.0,1.0,90,0.00,,---,0.00,VWS V13.01,2013-07-21 06:59:00,
2013-07-21 03:00:00,73.8,70.7,29.82,WSW,248,0.0,0.0,90,0.00,,---,0.00,VWS V13.01,2013-07-21 07:00:00,
2013-07-21 03:01:00,73.8,70.7,29.82,WSW,248,0.0,1.0,90,0.00,,---,0.00,VWS V13.01,2013-07-21 07:01:00,
2013-07-21 03:02:00,73.8,70.7,29.82,WSW,248,0.0,0.0,90,0.00,,---,0.00,VWS V13.01,2013-07-21 07:02:00,
2013-07-21 03:03:00,73.8,70.7,29.82,WSW,248,0.0,0.0,90,0.00,,---,0.00,VWS V13.01,2013-07-21 07:03:00,
2013-07-21 03:04:00,73.8,70.7,29.82,WSW,248,0.0,0.0,90,0.00,,---,0.00,VWS V13.01,2013-07-21 07:04:00,
2013-07-21 03:05:00,73.8,70.7,29.82,WSW,248,0.0,0.0,90,0.00,,---,0.00,VWS V13.01,2013-07-21 07:05:00,
2013-07-21 03:06:00,73.8,70.7,29.82,WSW,248,0.0,0.0,90,0.00,,---,0.00,VWS V13.01,2013-07-21 07:06:00,
2013-07-21 03:07:00,73.8,70.7,29.83,WSW,248,0.0,0.0,90,0.00,,---,0.00,VWS V13.01,2013-07-21 07:07:00,
2013-07-21 03:08:00,73.8,70.7,29.82,WSW,248,0.0,0.0,90,0.00,,---,0.00,VWS V13.01,2013-07-21 07:08:00,
2013-07-21 03:09:00,73.8,70.7,29.82,WSW,248,0.0,0.0,90,0.00,,---,0.00,VWS V13.01,2013-07-21 07:09:00,
2013-07-21 03:10:00,73.8,70.7,29.82,WSW,248,0.0,0.0,90,0.00,,---,0.00,VWS V13.01,2013-07-21 07:10:00,
2013-07-21 03:11:00,73.9,70.8,29.82,WSW,248,0.0,0.0,90,0.00,,---,0.00,VWS V13.01,2013-07-21 07:11:00,
2013-07-21 03:12:00,73.9,70.8,29.82,WSW,248,0.0,0.0,90,0.00,,---,0.00,VWS V13.01,2013-07-21 07:12:00,
2013-07-21 03:13:00,73.9,70.8,29.82,WSW,248,0.0,1.0,90,0.00,,---,0.00,VWS V13.01,2013-07-21 07:13:00,
2013-07-21 03:14:00,73.9,70.8,29.82,WSW,248,0.0,0.0,90,0.00,,---,0.00,VWS V13.01,2013-07-21 07:14:00,
2013-07-21 03:15:00,73.9,70.8,29.82,WSW,248,0.0,0.0,90,0.00,,---,0.00,VWS V13.01,2013-07-21 07:15:00,
2013-07-21 03:16:00,73.9,70.8,29.82,WSW,248,0.0,0.0,90,0.00,,---,0.00,VWS V13.01,2013-07-21 07:16:00,
2013-07-21 03:17:00,73.9,70.8,29.82,WSW,248,0.0,0.0,90,0.00,,---,0.00,VWS V13.01,2013-07-21 07:17:00,
2013-07-21 03:18:00,73.9,70.8,29.82,WSW,248,1.0,4.0,90,0.00,,---,0.00,VWS V13.01,2013-07-21 07:18:00,
2013-07-21 03:19:00,73.9,70.8,29.82,WSW,248,0.0,0.0,90,0.00,,---,0.00,VWS V13.01,2013-07-21 07:19:00,
2013-07-21 03:20:00,73.9,70.8,29.82,WSW,248,0.0,0.0,90,0.00,,---,0.00,VWS V13.01,2013-07-21 07:20:00,
2013-07-21 03:21:00,73.9,70.8,29.82,WSW,248,0.0,0.0,90,0.00,,---,0.00,VWS V13.01,2013-07-21 07:21:00,
2013-07-21 03:22:00,73.9,70.8,29.82,WSW,248,0.0,0.0,90,0.00,,---,0.00,VWS V13.01,2013-07-21 07:22:00,
2013-07-21 03:23:00,73.9,70.8,29.82,WSW,248,0.0,0.0,90,0.00,,---,0.00,VWS V13.01,2013-07-21 07:23:00,
2013-07-21 03:24:00,73.9,70.8,29.82,WSW,248,0.0,0.0,90,0.00,,---,0.00,VWS V13.01,2013-07-21 07:24:00,
2013-07-21 03:25:00,73.9,70.8,29.82,WSW,248,0.0,0.0,90,0.00,,---,0.00,VWS V13.01,2013-07-21 07:25:00,
2013-07-21 03:26:00,73.9,70.8,29.82,WSW,248,0.0,0.0,90,0.00,,---,0.00,VWS V13.01,2013-07-21 07:26:00,
2013-07-21 03:27:00,73.9,70.8,29.82,WSW,248,0.0,0.0,90,0.00,,---,0.00,VWS V13.01,2013-07-21 07:27:00,
2013-07-21 03:28:00,73.9,70.8,29.82,WSW,248,0.0,0.0,90,0.00,,---,0.00,VWS V13.01,2013-07-21 07:28:00,
2013-07-21 03:29:00,73.9,70.8,29.83,WSW,248,0.0,0.0,90,0.00,,---,0.00,VWS V13.01,2013-07-21 07:29:00,
2013-07-21 03:30:00,73.9,70.8,29.83,WSW,248,0.0,0.0,90,0.00,,---,0.00,VWS V13.01,2013-07-21 07:30:00,
2013-07-21 03:31:00,73.9,70.8,29.83,WSW,248,0.0,0.0,90,0.00,,---,0.00,VWS V13.01,2013-07-21 07:31:00,
2013-07-21 03:32:00,73.9,70.8,29.83,WSW,248,0.0,0.0,90,0.00,,---,0.00,VWS V13.01,2013-07-21 07:32:00,
2013-07-21 03:33:00,73.9,70.8,29.83,WSW,248,0.0,0.0,90,0.00,,---,0.00,VWS V13.01,2013-07-21 07:33:00,
2013-07-21 03:34:00,73.9,70.8,29.83,WSW,248,0.0,0.0,90,0.00,,---,0.00,VWS V13.01,2013-07-21 07:34:00,
2013-07-21 03:35:00,73.9,70.8,29.83,WSW,248,0.0,1.0,90,0.00,,---,0.00,VWS V13.01,2013-07-21 07:35:00,
2013-07-21 03:36:00,73.9,70.8,29.83,WSW,248,0.0,0.0,90,0.00,,---,0.00,VWS V13.01,2013-07-21 07:36:00,
2013-07-21 03:37:00,73.8,70.7,29.82,WSW,248,0.0,0.0,90,0.00,,---,0.00,VWS V13.01,2013-07-21 07:37:00,
2013-07-21 03:38:00,73.9,70.8,29.82,WSW,248,0.0,0.0,90,0.00,,---,0.00,VWS V13.01,2013-07-21 07:38:00,
2013-07-21 03:39:00,73.8,70.7,29.83,WSW,248,0.0,1.0,90,0.00,,---,0.00,VWS V13.01,2013-07-21 07:39:00,
2013-07-21 03:40:00,73.8,70.7,29.82,WSW,248,0.0,0.0,90,0.00,,---,0.00,VWS V13.01,2013-07-21 07:40:00,
2013-07-21 03:41:00,73.8,70.7,29.82,WSW,248,0.0,0.0,90,0.01,,---,0.01,VWS V13.01,2013-07-21 07:41:00,
2013-07-21 03:42:00,73.8,70.7,29.82,WSW,248,0.0,0.0,90,0.01,,---,0.01,VWS V13.01,2013-07-21 07:42:00,
2013-07-21 03:43:00,73.8,70.7,29.82,WSW,248,0.0,0.0,90,0.01,,---,0.01,VWS V13.01,2013-07-21 07:43:00,
2013-07-21 03:44:00,73.8,70.7,29.82,WSW,248,0.0,0.0,90,0.01,,---,0.01,VWS V13.01,2013-07-21 07:44:00,
2013-07-21 03:45:00,73.8,70.7,29.82,WSW,248,0.0,0.0,90,0.01,,---,0.01,VWS V13.01,2013-07-21 07:45:00,
2013-07-21 03:46:00,73.8,70.7,29.82,WSW,248,0.0,0.0,90,0.01,,---,0.01,VWS V13.01,2013-07-21 07:46:00,
2013-07-21 03:47:00,73.8,71.0,29.82,WSW,248,0.0,0.0,91,0.01,,---,0.01,VWS V13.01,2013-07-21 07:47:00,
2013-07-21 03:48:00,73.8,71.0,29.82,WSW,248,0.0,0.0,91,0.01,,---,0.01,VWS V13.01,2013-07-21 07:48:00,
2013-07-21 03:49:00,73.8,71.0,29.82,WSW,248,0.0,0.0,91,0.01,,---,0.01,VWS V13.01,2013-07-21 07:49:00,
2013-07-21 03:50:00,73.8,71.0,29.82,WNW,292,0.0,1.0,91,0.01,,---,0.01,VWS V13.01,2013-07-21 07:50:00,
2013-07-21 03:51:00,73.8,71.0,29.82,WNW,292,0.0,0.0,91,0.01,,---,0.01,VWS V13.01,2013-07-21 07:51:00,
2013-07-21 03:52:00,73.8,71.0,29.82,WNW,292,0.0,0.0,91,0.01,,---,0.01,VWS V13.01,2013-07-21 07:52:00,
2013-07-21 03:53:00,73.7,70.9,29.83,WNW,292,0.0,0.0,91,0.01,,---,0.01,VWS V13.01,2013-07-21 07:53:00,
2013-07-21 03:54:00,73.7,70.9,29.83,WNW,292,0.0,0.0,91,0.01,,---,0.01,VWS V13.01,2013-07-21 07:54:00,
2013-07-21 03:55:00,73.7,70.9,29.83,WNW,292,0.0,0.0,91,0.01,,---,0.01,VWS V13.01,2013-07-21 07:55:00,
2013-07-21 03:56:00,73.7,70.9,29.83,WNW,292,0.0,0.0,91,0.01,,---,0.01,VWS V13.01,2013-07-21 07:56:00,
2013-07-21 03:57:00,73.7,70.9,29.83,WNW,292,0.0,0.0,91,0.01,,---,0.01,VWS V13.01,2013-07-21 07:57:00,
2013-07-21 03:58:00,73.7,70.9,29.83,WNW,292,0.0,0.0,91,0.01,,---,0.01,VWS V13.01,2013-07-21 07:58:00,
2013-07-21 03:59:00,73.7,70.9,29.83,WNW,292,0.0,3.0,91,0.01,,---,0.01,VWS V13.01,2013-07-21 07:59:00,
2013-07-21 04:00:00,73.7,70.9,29.83,WNW,292,0.0,0.0,91,0.01,,---,0.01,VWS V13.01,2013-07-21 08:00:00,
2013-07-21 04:01:00,73.7,70.9,29.83,WNW,292,0.0,0.0,91,0.01,,---,0.01,VWS V13.01,2013-07-21 08:01:00,
2013-07-21 04:02:00,73.7,70.9,29.83,WNW,292,0.0,0.0,91,0.01,,---,0.01,VWS V13.01,2013-07-21 08:02:00,
2013-07-21 04:03:00,73.6,70.8,29.83,WNW,292,0.0,0.0,91,0.01,,---,0.01,VWS V13.01,2013-07-21 08:03:00,
2013-07-21 04:04:00,73.6,70.8,29.83,WNW,292,0.0,0.0,91,0.01,,---,0.01,VWS V13.01,2013-07-21 08:04:00,
2013-07-21 04:05:00,73.6,70.8,29.83,WNW,292,0.0,2.0,91,0.01,,---,0.01,VWS V13.01,2013-07-21 08:05:00,
2013-07-21 04:06:00,73.6,70.8,29.83,WNW,292,0.0,1.0,91,0.01,,---,0.01,VWS V13.01,2013-07-21 08:06:00,
2013-07-21 04:07:00,73.6,70.8,29.83,WNW,292,0.0,0.0,91,0.01,,---,0.01,VWS V13.01,2013-07-21 08:07:00,
2013-07-21 04:08:00,73.6,71.1,29.83,WNW,292,0.0,2.0,92,0.01,,---,0.01,VWS V13.01,2013-07-21 08:08:00,
2013-07-21 04:09:00,73.6,71.1,29.83,WNW,292,0.0,0.0,92,0.01,,---,0.01,VWS V13.01,2013-07-21 08:09:00,
2013-07-21 04:10:00,73.5,71.0,29.83,WNW,292,0.0,2.0,92,0.01,,---,0.01,VWS V13.01,2013-07-21 08:10:00,
2013-07-21 04:11:00,73.5,71.0,29.83,WNW,292,0.0,0.0,92,0.01,,---,0.01,VWS V13.01,2013-07-21 08:11:00,
2013-07-21 04:12:00,73.5,71.0,29.83,WNW,292,0.0,0.0,92,0.01,,---,0.01,VWS V13.01,2013-07-21 08:12:00,
2013-07-21 04:13:00,73.5,71.0,29.83,WNW,292,0.0,0.0,92,0.01,,---,0.01,VWS V13.01,2013-07-21 08:13:00,
2013-07-21 04:14:00,73.5,71.0,29.83,WNW,292,0.0,0.0,92,0.01,,---,0.01,VWS V13.01,2013-07-21 08:14:00,
2013-07-21 04:15:00,73.5,71.0,29.83,WNW,292,0.0,0.0,92,0.01,,---,0.01,VWS V13.01,2013-07-21 08:15:00,
2013-07-21 04:16:00,73.5,71.0,29.83,WNW,292,0.0,0.0,92,0.01,,---,0.01,VWS V13.01,2013-07-21 08:16:00,
2013-07-21 04:17:00,73.5,71.0,29.83,WNW,292,0.0,0.0,92,0.01,,---,0.01,VWS V13.01,2013-07-21 08:17:00,
2013-07-21 04:18:00,73.5,71.0,29.83,WNW,292,0.0,0.0,92,0.01,,---,0.01,VWS V13.01,2013-07-21 08:18:00,
2013-07-21 04:19:00,73.4,70.9,29.83,WNW,292,0.0,0.0,92,0.01,,---,0.01,VWS V13.01,2013-07-21 08:19:00,
2013-07-21 04:20:00,73.4,70.9,29.83,WNW,292,0.0,0.0,92,0.01,,---,0.01,VWS V13.01,2013-07-21 08:20:00,
2013-07-21 04:21:00,73.4,70.9,29.83,WNW,292,0.0,0.0,92,0.01,,---,0.01,VWS V13.01,2013-07-21 08:21:00,
2013-07-21 04:22:00,73.4,70.9,29.83,WNW,292,0.0,0.0,92,0.01,,---,0.01,VWS V13.01,2013-07-21 08:22:00,
2013-07-21 04:23:00,73.4,70.9,29.83,WNW,292,0.0,0.0,92,0.01,,---,0.01,VWS V13.01,2013-07-21 08:23:00,
2013-07-21 04:24:00,73.4,70.9,29.83,WNW,292,0.0,0.0,92,0.01,,---,0.01,VWS V13.01,2013-07-21 08:24:00,
2013-07-21 04:25:00,73.3,70.8,29.83,WNW,292,0.0,0.0,92,0.01,,---,0.01,VWS V13.01,2013-07-21 08:25:00,
2013-07-21 04:26:00,73.3,70.8,29.83,WNW,292,0.0,1.0,92,0.01,,---,0.01,VWS V13.01,2013-07-21 08:26:00,
2013-07-21 04:27:00,73.3,70.8,29.83,WNW,292,0.0,0.0,92,0.01,,---,0.01,VWS V13.01,2013-07-21 08:27:00,
2013-07-21 04:28:00,73.3,70.8,29.83,WNW,292,0.0,1.0,92,0.01,,---,0.01,VWS V13.01,2013-07-21 08:28:00,
2013-07-21 04:29:00,73.3,70.8,29.83,WNW,292,0.0,1.0,92,0.01,,---,0.01,VWS V13.01,2013-07-21 08:29:00,
2013-07-21 04:30:00,73.3,70.8,29.83,WNW,292,0.0,0.0,92,0.01,,---,0.01,VWS V13.01,2013-07-21 08:30:00,
2013-07-21 04:31:00,73.3,70.8,29.83,WNW,292,0.0,0.0,92,0.01,,---,0.01,VWS V13.01,2013-07-21 08:31:00,
2013-07-21 04:32:00,73.3,70.8,29.83,WNW,292,0.0,0.0,92,0.01,,---,0.01,VWS V13.01,2013-07-21 08:32:00,
2013-07-21 04:33:00,73.2,70.7,29.83,WNW,292,0.0,0.0,92,0.01,,---,0.01,VWS V13.01,2013-07-21 08:33:00,
2013-07-21 04:34:00,73.2,70.7,29.83,WNW,292,0.0,0.0,92,0.01,,---,0.01,VWS V13.01,2013-07-21 08:34:00,
2013-07-21 04:35:00,73.2,70.7,29.83,WNW,292,0.0,0.0,92,0.01,,---,0.01,VWS V13.01,2013-07-21 08:35:00,
2013-07-21 04:36:00,73.1,70.6,29.83,WNW,292,0.0,0.0,92,0.01,,---,0.01,VWS V13.01,2013-07-21 08:36:00,
2013-07-21 04:37:00,73.1,70.6,29.83,WNW,292,1.0,3.0,92,0.01,,---,0.01,VWS V13.01,2013-07-21 08:37:00,
2013-07-21 04:38:00,73.1,70.6,29.83,WNW,292,0.0,0.0,92,0.01,,---,0.01,VWS V13.01,2013-07-21 08:38:00,
2013-07-21 04:39:00,73.1,70.6,29.83,WNW,292,0.0,0.0,92,0.01,,---,0.01,VWS V13.01,2013-07-21 08:39:00,
2013-07-21 04:40:00,73.1,70.6,29.83,WNW,292,0.0,0.0,92,0.01,,---,0.01,VWS V13.01,2013-07-21 08:40:00,
2013-07-21 04:41:00,73.1,70.6,29.83,WNW,292,0.0,0.0,92,0.01,,---,0.01,VWS V13.01,2013-07-21 08:41:00,
2013-07-21 04:42:00,73.0,70.5,29.83,WNW,292,0.0,0.0,92,0.00,,---,0.01,VWS V13.01,2013-07-21 08:42:00,
2013-07-21 04:43:00,73.0,70.5,29.83,WNW,292,0.0,0.0,92,0.00,,---,0.01,VWS V13.01,2013-07-21 08:43:00,
2013-07-21 04:44:00,73.0,70.5,29.83,WNW,292,0.0,0.0,92,0.00,,---,0.01,VWS V13.01,2013-07-21 08:44:00,
2013-07-21 04:45:00,73.0,70.5,29.83,WNW,292,0.0,0.0,92,0.00,,---,0.01,VWS V13.01,2013-07-21 08:45:00,
2013-07-21 04:46:00,73.0,70.5,29.83,WNW,292,0.0,0.0,92,0.00,,---,0.01,VWS V13.01,2013-07-21 08:46:00,
2013-07-21 04:47:00,73.0,70.5,29.83,WNW,292,0.0,1.0,92,0.00,,---,0.01,VWS V13.01,2013-07-21 08:47:00,
2013-07-21 04:48:00,73.0,70.5,29.83,WNW,292,0.0,0.0,92,0.00,,---,0.01,VWS V13.01,2013-07-21 08:48:00,
2013-07-21 04:49:00,73.0,70.5,29.83,WNW,292,0.0,1.0,92,0.00,,---,0.01,VWS V13.01,2013-07-21 08:49:00,
2013-07-21 04:50:00,72.9,70.4,29.83,WNW,292,0.0,0.0,92,0.00,,---,0.01,VWS V13.01,2013-07-21 08:50:00,
2013-07-21 04:51:00,72.9,70.4,29.83,WNW,292,0.0,0.0,92,0.00,,---,0.01,VWS V13.01,2013-07-21 08:51:00,
2013-07-21 04:52:00,72.9,70.4,29.83,WNW,292,0.0,0.0,92,0.00,,---,0.01,VWS V13.01,2013-07-21 08:52:00,
2013-07-21 04:53:00,72.9,70.4,29.83,WNW,292,0.0,1.0,92,0.00,,---,0.01,VWS V13.01,2013-07-21 08:53:00,
2013-07-21 04:54:00,72.9,70.4,29.83,WNW,292,0.0,0.0,92,0.00,,---,0.01,VWS V13.01,2013-07-21 08:54:00,
2013-07-21 04:55:00,72.9,70.4,29.83,WNW,292,0.0,1.0,92,0.00,,---,0.01,VWS V13.01,2013-07-21 08:55:00,
2013-07-21 04:56:00,72.9,70.4,29.83,WNW,292,0.0,0.0,92,0.00,,---,0.01,VWS V13.01,2013-07-21 08:56:00,
2013-07-21 04:57:00,72.9,70.4,29.83,WNW,292,0.0,1.0,92,0.00,,---,0.01,VWS V13.01,2013-07-21 08:57:00,
2013-07-21 04:58:00,72.8,70.3,29.84,WNW,292,0.0,0.0,92,0.00,,---,0.01,VWS V13.01,2013-07-21 08:58:00,
2013-07-21 04:59:00,72.8,70.3,29.84,WNW,292,1.0,3.0,92,0.00,,---,0.01,VWS V13.01,2013-07-21 08:59:00,
2013-07-21 05:00:00,72.8,70.7,29.84,WNW,292,0.0,1.0,93,0.00,,---,0.01,VWS V13.01,2013-07-21 09:00:00,
2013-07-21 05:01:00,72.8,70.7,29.84,WNW,292,0.0,0.0,93,0.00,,---,0.01,VWS V13.01,2013-07-21 09:01:00,
2013-07-21 05:02:00,72.8,70.7,29.84,WNW,292,0.0,0.0,93,0.00,,---,0.01,VWS V13.01,2013-07-21 09:02:00,
2013-07-21 05:03:00,72.8,70.7,29.83,WNW,292,0.0,0.0,93,0.00,,---,0.01,VWS V13.01,2013-07-21 09:03:00,
2013-07-21 05:04:00,72.8,70.7,29.84,WNW,292,0.0,0.0,93,0.00,,---,0.01,VWS V13.01,2013-07-21 09:04:00,
2013-07-21 05:05:00,72.8,70.7,29.83,WNW,292,0.0,0.0,93,0.00,,---,0.01,VWS V13.01,2013-07-21 09:05:00,
2013-07-21 05:06:00,72.8,70.7,29.84,WNW,292,0.0,0.0,93,0.00,,---,0.01,VWS V13.01,2013-07-21 09:06:00,
2013-07-21 05:07:00,72.8,70.7,29.84,WNW,292,0.0,0.0,93,0.00,,---,0.01,VWS V13.01,2013-07-21 09:07:00,
2013-07-21 05:08:00,72.8,70.7,29.83,WNW,292,0.0,0.0,93,0.00,,---,0.01,VWS V13.01,2013-07-21 09:08:00,
2013-07-21 05:09:00,72.8,70.7,29.83,WNW,292,0.0,0.0,93,0.00,,---,0.01,VWS V13.01,2013-07-21 09:09:00,
2013-07-21 05:10:00,72.8,70.7,29.83,WNW,292,0.0,0.0,93,0.00,,---,0.01,VWS V13.01,2013-07-21 09:10:00,
2013-07-21 05:11:00,72.8,70.7,29.83,WNW,292,0.0,0.0,93,0.00,,---,0.01,VWS V13.01,2013-07-21 09:11:00,
2013-07-21 05:12:00,72.7,70.6,29.83,WNW,292,0.0,0.0,93,0.00,,---,0.01,VWS V13.01,2013-07-21 09:12:00,
2013-07-21 05:13:00,72.7,70.2,29.83,WNW,292,0.0,0.0,92,0.00,,---,0.01,VWS V13.01,2013-07-21 09:13:00,
2013-07-21 05:14:00,72.7,70.2,29.83,WNW,292,0.0,0.0,92,0.00,,---,0.01,VWS V13.01,2013-07-21 09:14:00,
2013-07-21 05:15:00,72.7,70.2,29.83,WNW,292,0.0,1.0,92,0.00,,---,0.01,VWS V13.01,2013-07-21 09:15:00,
2013-07-21 05:16:00,72.7,70.2,29.83,WNW,292,0.0,0.0,92,0.00,,---,0.01,VWS V13.01,2013-07-21 09:16:00,
2013-07-21 05:17:00,72.7,70.2,29.83,WNW,292,0.0,0.0,92,0.00,,---,0.01,VWS V13.01,2013-07-21 09:17:00,
2013-07-21 05:18:00,72.7,70.2,29.83,WNW,292,0.0,0.0,92,0.00,,---,0.01,VWS V13.01,2013-07-21 09:18:00,
2013-07-21 05:19:00,72.6,70.2,29.83,WNW,292,0.0,0.0,92,0.00,,---,0.01,VWS V13.01,2013-07-21 09:19:00,
2013-07-21 05:20:00,72.6,70.2,29.83,WNW,292,0.0,0.0,92,0.00,,---,0.01,VWS V13.01,2013-07-21 09:20:00,
2013-07-21 05:21:00,72.6,70.2,29.83,WNW,292,0.0,0.0,92,0.00,,---,0.01,VWS V13.01,2013-07-21 09:21:00,
2013-07-21 05:22:00,72.6,70.5,29.83,WNW,292,0.0,0.0,93,0.00,,---,0.01,VWS V13.01,2013-07-21 09:22:00,
2013-07-21 05:23:00,72.6,70.5,29.83,WNW,292,0.0,0.0,93,0.00,,---,0.01,VWS V13.01,2013-07-21 09:23:00,
2013-07-21 05:24:00,72.6,70.5,29.84,NW,315,0.0,3.0,93,0.00,,---,0.01,VWS V13.01,2013-07-21 09:24:00,
2013-07-21 05:25:00,72.6,70.2,29.84,NW,315,0.0,0.0,92,0.00,,---,0.01,VWS V13.01,2013-07-21 09:25:00,
2013-07-21 05:26:00,72.6,70.2,29.84,NW,315,0.0,0.0,92,0.00,,---,0.01,VWS V13.01,2013-07-21 09:26:00,
2013-07-21 05:27:00,72.6,70.2,29.84,NW,315,0.0,0.0,92,0.00,,---,0.01,VWS V13.01,2013-07-21 09:27:00,
2013-07-21 05:28:00,72.6,70.2,29.84,NW,315,0.0,0.0,92,0.00,,---,0.01,VWS V13.01,2013-07-21 09:28:00,
2013-07-21 05:29:00,72.6,70.5,29.84,NW,315,0.0,0.0,93,0.00,,---,0.01,VWS V13.01,2013-07-21 09:29:00,
2013-07-21 05:30:00,72.6,70.5,29.84,NW,315,0.0,0.0,93,0.00,,---,0.01,VWS V13.01,2013-07-21 09:30:00,
2013-07-21 05:31:00,72.6,70.5,29.84,NW,315,0.0,0.0,93,0.00,,---,0.01,VWS V13.01,2013-07-21 09:31:00,
2013-07-21 05:32:00,72.6,70.5,29.83,NW,315,0.0,0.0,93,0.00,,---,0.01,VWS V13.01,2013-07-21 09:32:00,
2013-07-21 05:33:00,72.5,70.1,29.84,NW,315,0.0,1.0,92,0.00,,---,0.01,VWS V13.01,2013-07-21 09:33:00,
2013-07-21 05:34:00,72.5,70.4,29.84,NW,315,0.0,0.0,93,0.00,,---,0.01,VWS V13.01,2013-07-21 09:34:00,
2013-07-21 05:35:00,72.5,70.1,29.84,NW,315,0.0,0.0,92,0.00,,---,0.01,VWS V13.01,2013-07-21 09:35:00,
2013-07-21 05:36:00,72.5,70.4,29.84,NW,315,0.0,0.0,93,0.00,,---,0.01,VWS V13.01,2013-07-21 09:36:00,
2013-07-21 05:37:00,72.5,70.4,29.84,NW,315,0.0,0.0,93,0.00,,---,0.01,VWS V13.01,2013-07-21 09:37:00,
2013-07-21 05:38:00,72.5,70.4,29.84,NW,315,0.0,0.0,93,0.00,,---,0.01,VWS V13.01,2013-07-21 09:38:00,
2013-07-21 05:39:00,72.5,70.4,29.84,NW,315,0.0,0.0,93,0.00,,---,0.01,VWS V13.01,2013-07-21 09:39:00,
2013-07-21 05:40:00,72.5,70.4,29.84,NW,315,0.0,0.0,93,0.00,,---,0.01,VWS V13.01,2013-07-21 09:40:00,
2013-07-21 05:41:00,72.5,70.4,29.84,NW,315,0.0,0.0,93,0.00,,---,0.01,VWS V13.01,2013-07-21 09:41:00,
2013-07-21 05:42:00,72.4,70.3,29.84,NW,315,0.0,0.0,93,0.00,,---,0.01,VWS V13.01,2013-07-21 09:42:00,
2013-07-21 05:43:00,72.4,70.3,29.84,NW,315,0.0,0.0,93,0.00,,---,0.01,VWS V13.01,2013-07-21 09:43:00,
2013-07-21 05:44:00,72.4,70.3,29.84,NW,315,0.0,0.0,93,0.00,,---,0.01,VWS V13.01,2013-07-21 09:44:00,
2013-07-21 05:45:00,72.4,70.3,29.84,NW,315,0.0,0.0,93,0.00,,---,0.01,VWS V13.01,2013-07-21 09:45:00,
2013-07-21 05:46:00,72.4,70.3,29.84,NW,315,0.0,0.0,93,0.00,,---,0.01,VWS V13.01,2013-07-21 09:46:00,
2013-07-21 05:47:00,72.4,70.3,29.84,NW,315,0.0,1.0,93,0.00,,---,0.01,VWS V13.01,2013-07-21 09:47:00,
2013-07-21 05:48:00,72.4,70.3,29.84,NW,315,0.0,0.0,93,0.00,,---,0.01,VWS V13.01,2013-07-21 09:48:00,
2013-07-21 05:49:00,72.4,70.3,29.85,NW,315,0.0,0.0,93,0.00,,---,0.01,VWS V13.01,2013-07-21 09:49:00,
2013-07-21 05:50:00,72.4,70.3,29.84,NW,315,0.0,0.0,93,0.00,,---,0.01,VWS V13.01,2013-07-21 09:50:00,
2013-07-21 05:51:00,72.4,70.3,29.85,NW,315,0.0,0.0,93,0.00,,---,0.01,VWS V13.01,2013-07-21 09:51:00,
2013-07-21 05:52:00,72.4,70.3,29.84,NW,315,0.0,0.0,93,0.00,,---,0.01,VWS V13.01,2013-07-21 09:52:00,
2013-07-21 05:53:00,72.4,70.3,29.85,NW,315,0.0,0.0,93,0.00,,---,0.01,VWS V13.01,2013-07-21 09:53:00,
2013-07-21 05:54:00,72.4,70.3,29.85,NW,315,0.0,0.0,93,0.00,,---,0.01,VWS V13.01,2013-07-21 09:54:00,
2013-07-21 05:55:00,72.4,70.3,29.85,NW,315,0.0,0.0,93,0.00,,---,0.01,VWS V13.01,2013-07-21 09:55:00,
2013-07-21 05:56:00,72.4,70.3,29.85,NW,315,0.0,0.0,93,0.00,,---,0.01,VWS V13.01,2013-07-21 09:56:00,
2013-07-21 05:57:00,72.4,70.3,29.85,NW,315,0.0,0.0,93,0.00,,---,0.01,VWS V13.01,2013-07-21 09:57:00,
2013-07-21 05:58:00,72.4,70.3,29.85,NW,315,0.0,0.0,93,0.00,,---,0.01,VWS V13.01,2013-07-21 09:58:00,
2013-07-21 05:59:00,72.4,70.3,29.85,NW,315,0.0,1.0,93,0.00,,---,0.01,VWS V13.01,2013-07-21 09:59:00,
2013-07-21 06:00:00,72.4,70.3,29.85,NW,315,0.0,0.0,93,0.00,,---,0.01,VWS V13.01,2013-07-21 10:00:00,
2013-07-21 06:01:00,72.3,70.2,29.85,NW,315,0.0,0.0,93,0.00,,---,0.01,VWS V13.01,2013-07-21 10:01:00,
2013-07-21 06:02:00,72.3,70.2,29.85,NW,315,0.0,0.0,93,0.00,,---,0.01,VWS V13.01,2013-07-21 10:02:00,
2013-07-21 06:03:00,72.3,70.2,29.85,NW,315,0.0,0.0,93,0.00,,---,0.01,VWS V13.01,2013-07-21 10:03:00,
2013-07-21 06:04:00,72.3,70.2,29.85,NW,315,0.0,0.0,93,0.00,,---,0.01,VWS V13.01,2013-07-21 10:04:00,
2013-07-21 06:05:00,72.3,70.2,29.85,NW,315,0.0,0.0,93,0.00,,---,0.01,VWS V13.01,2013-07-21 10:05:00,
2013-07-21 06:06:00,72.3,70.2,29.85,NW,315,0.0,0.0,93,0.00,,---,0.01,VWS V13.01,2013-07-21 10:06:00,
2013-07-21 06:07:00,72.3,70.2,29.85,NW,315,0.0,0.0,93,0.00,,---,0.01,VWS V13.01,2013-07-21 10:07:00,
2013-07-21 06:08:00,72.3,70.2,29.85,NW,315,0.0,1.0,93,0.00,,---,0.01,VWS V13.01,2013-07-21 10:08:00,
2013-07-21 06:09:00,72.3,70.2,29.85,NW,315,0.0,0.0,93,0.00,,---,0.01,VWS V13.01,2013-07-21 10:09:00,
2013-07-21 06:10:00,72.3,70.2,29.85,NW,315,0.0,0.0,93,0.00,,---,0.01,VWS V13.01,2013-07-21 10:10:00,
2013-07-21 06:11:00,72.4,70.3,29.85,NW,315,0.0,0.0,93,0.00,,---,0.01,VWS V13.01,2013-07-21 10:11:00,
2013-07-21 06:12:00,72.4,70.3,29.85,NW,315,0.0,0.0,93,0.00,,---,0.01,VWS V13.01,2013-07-21 10:12:00,
2013-07-21 06:13:00,72.4,70.3,29.85,NW,315,0.0,0.0,93,0.00,,---,0.01,VWS V13.01,2013-07-21 10:13:00,
2013-07-21 06:14:00,72.4,70.3,29.85,NW,315,0.0,0.0,93,0.00,,---,0.01,VWS V13.01,2013-07-21 10:14:00,
2013-07-21 06:15:00,72.4,70.3,29.85,NW,315,0.0,0.0,93,0.00,,---,0.01,VWS V13.01,2013-07-21 10:15:00,
2013-07-21 06:16:00,72.4,70.3,29.85,NW,315,0.0,0.0,93,0.00,,---,0.01,VWS V13.01,2013-07-21 10:16:00,
2013-07-21 06:17:00,72.4,70.3,29.85,NW,315,0.0,0.0,93,0.00,,---,0.01,VWS V13.01,2013-07-21 10:17:00,
2013-07-21 06:18:00,72.4,70.3,29.85,NW,315,0.0,0.0,93,0.00,,---,0.01,VWS V13.01,2013-07-21 10:18:00,
2013-07-21 06:19:00,72.4,70.3,29.85,NW,315,0.0,0.0,93,0.00,,---,0.01,VWS V13.01,2013-07-21 10:19:00,
2013-07-21 06:20:00,72.4,70.3,29.86,NW,315,0.0,0.0,93,0.00,,---,0.01,VWS V13.01,2013-07-21 10:20:00,
2013-07-21 06:21:00,72.4,70.3,29.85,NW,315,0.0,0.0,93,0.00,,---,0.01,VWS V13.01,2013-07-21 10:21:00,
2013-07-21 06:22:00,72.4,70.3,29.85,NW,315,0.0,0.0,93,0.00,,---,0.01,VWS V13.01,2013-07-21 10:22:00,
2013-07-21 06:23:00,72.4,70.3,29.85,NW,315,0.0,0.0,93,0.00,,---,0.01,VWS V13.01,2013-07-21 10:23:00,
2013-07-21 06:24:00,72.4,70.3,29.86,NW,315,0.0,0.0,93,0.00,,---,0.01,VWS V13.01,2013-07-21 10:24:00,
2013-07-21 06:25:00,72.4,70.3,29.86,NW,315,0.0,0.0,93,0.00,,---,0.01,VWS V13.01,2013-07-21 10:25:00,
2013-07-21 06:26:00,72.4,70.3,29.86,NW,315,0.0,0.0,93,0.00,,---,0.01,VWS V13.01,2013-07-21 10:26:00,
2013-07-21 06:27:00,72.5,70.4,29.86,NW,315,0.0,0.0,93,0.00,,---,0.01,VWS V13.01,2013-07-21 10:27:00,
2013-07-21 06:28:00,72.5,70.4,29.86,NW,315,0.0,0.0,93,0.00,,---,0.01,VWS V13.01,2013-07-21 10:28:00,
2013-07-21 06:29:00,72.5,70.4,29.86,NW,315,0.0,0.0,93,0.00,,---,0.01,VWS V13.01,2013-07-21 10:29:00,
2013-07-21 06:30:00,72.5,70.4,29.86,NW,315,0.0,0.0,93,0.00,,---,0.01,VWS V13.01,2013-07-21 10:30:00,
2013-07-21 06:31:00,72.5,70.4,29.85,NW,315,0.0,0.0,93,0.00,,---,0.01,VWS V13.01,2013-07-21 10:31:00,
2013-07-21 06:32:00,72.5,70.4,29.86,NW,315,0.0,0.0,93,0.00,,---,0.01,VWS V13.01,2013-07-21 10:32:00,
2013-07-21 06:33:00,72.5,70.4,29.86,NW,315,0.0,0.0,93,0.00,,---,0.01,VWS V13.01,2013-07-21 10:33:00,
2013-07-21 06:34:00,72.6,70.5,29.85,NW,315,0.0,0.0,93,0.00,,---,0.01,VWS V13.01,2013-07-21 10:34:00,
2013-07-21 06:35:00,72.5,70.4,29.85,NW,315,0.0,0.0,93,0.00,,---,0.01,VWS V13.01,2013-07-21 10:35:00,
2013-07-21 06:36:00,72.5,70.4,29.86,NW,315,0.0,0.0,93,0.00,,---,0.01,VWS V13.01,2013-07-21 10:36:00,
2013-07-21 06:37:00,72.5,70.4,29.86,NW,315,0.0,0.0,93,0.00,,---,0.01,VWS V13.01,2013-07-21 10:37:00,
2013-07-21 06:38:00,72.6,70.5,29.86,NW,315,0.0,0.0,93,0.00,,---,0.01,VWS V13.01,2013-07-21 10:38:00,
2013-07-21 06:39:00,72.6,70.5,29.86,NW,315,0.0,0.0,93,0.00,,---,0.01,VWS V13.01,2013-07-21 10:39:00,
2013-07-21 06:40:00,72.6,70.5,29.86,NW,315,0.0,0.0,93,0.00,,---,0.01,VWS V13.01,2013-07-21 10:40:00,
2013-07-21 06:41:00,72.6,70.5,29.86,NW,315,0.0,0.0,93,0.00,,---,0.01,VWS V13.01,2013-07-21 10:41:00,
2013-07-21 06:42:00,72.6,70.5,29.86,NW,315,0.0,0.0,93,0.00,,---,0.01,VWS V13.01,2013-07-21 10:42:00,
2013-07-21 06:43:00,72.6,70.5,29.85,NW,315,0.0,0.0,93,0.00,,---,0.01,VWS V13.01,2013-07-21 10:43:00,
2013-07-21 06:44:00,72.6,70.5,29.86,NW,315,0.0,0.0,93,0.00,,---,0.01,VWS V13.01,2013-07-21 10:44:00,
2013-07-21 06:45:00,72.6,70.5,29.86,NW,315,0.0,1.0,93,0.00,,---,0.01,VWS V13.01,2013-07-21 10:45:00,
2013-07-21 06:46:00,72.6,70.5,29.86,NW,315,0.0,1.0,93,0.00,,---,0.01,VWS V13.01,2013-07-21 10:46:00,
2013-07-21 06:47:00,72.7,70.6,29.86,NW,315,0.0,0.0,93,0.00,,---,0.01,VWS V13.01,2013-07-21 10:47:00,
2013-07-21 06:48:00,72.7,70.6,29.86,NW,315,0.0,1.0,93,0.00,,---,0.01,VWS V13.01,2013-07-21 10:48:00,
2013-07-21 06:49:00,72.7,70.6,29.86,NW,315,0.0,0.0,93,0.00,,---,0.01,VWS V13.01,2013-07-21 10:49:00,
2013-07-21 06:50:00,72.7,70.6,29.86,NW,315,0.0,0.0,93,0.00,,---,0.01,VWS V13.01,2013-07-21 10:50:00,
2013-07-21 06:51:00,72.8,70.7,29.86,NW,315,1.0,3.0,93,0.00,,---,0.01,VWS V13.01,2013-07-21 10:51:00,
2013-07-21 06:52:00,72.8,70.7,29.86,NW,315,0.0,0.0,93,0.00,,---,0.01,VWS V13.01,2013-07-21 10:52:00,
2013-07-21 06:53:00,72.8,71.0,29.86,NW,315,0.0,0.0,94,0.00,,---,0.01,VWS V13.01,2013-07-21 10:53:00,
2013-07-21 06:54:00,72.9,71.1,29.86,NW,315,0.0,0.0,94,0.00,,---,0.01,VWS V13.01,2013-07-21 10:54:00,
2013-07-21 06:55:00,72.9,71.1,29.86,NW,315,0.0,0.0,94,0.00,,---,0.01,VWS V13.01,2013-07-21 10:55:00,
2013-07-21 06:56:00,72.9,71.1,29.86,NW,315,0.0,0.0,94,0.00,,---,0.01,VWS V13.01,2013-07-21 10:56:00,
2013-07-21 06:57:00,73.0,71.2,29.86,NW,315,0.0,0.0,94,0.00,,---,0.01,VWS V13.01,2013-07-21 10:57:00,
2013-07-21 06:58:00,73.0,71.2,29.86,NW,315,0.0,0.0,94,0.00,,---,0.01,VWS V13.01,2013-07-21 10:58:00,
2013-07-21 06:59:00,73.1,71.3,29.86,NW,315,0.0,0.0,94,0.00,,---,0.01,VWS V13.01,2013-07-21 10:59:00,
2013-07-21 07:00:00,73.1,71.3,29.86,NW,315,0.0,0.0,94,0.00,,---,0.01,VWS V13.01,2013-07-21 11:00:00,
2013-07-21 07:01:00,73.2,71.4,29.86,NW,315,0.0,0.0,94,0.00,,---,0.01,VWS V13.01,2013-07-21 11:01:00,
2013-07-21 07:02:00,73.2,71.4,29.86,NW,315,0.0,0.0,94,0.00,,---,0.01,VWS V13.01,2013-07-21 11:02:00,
2013-07-21 07:03:00,73.3,71.5,29.86,NW,315,0.0,0.0,94,0.00,,---,0.01,VWS V13.01,2013-07-21 11:03:00,
2013-07-21 07:04:00,73.3,71.5,29.86,NW,315,0.0,0.0,94,0.00,,---,0.01,VWS V13.01,2013-07-21 11:04:00,
2013-07-21 07:05:00,73.4,71.6,29.86,NW,315,0.0,0.0,94,0.00,,---,0.01,VWS V13.01,2013-07-21 11:05:00,
2013-07-21 07:06:00,73.4,71.6,29.86,NW,315,0.0,1.0,94,0.00,,---,0.01,VWS V13.01,2013-07-21 11:06:00,
2013-07-21 07:07:00,73.5,71.7,29.86,NW,315,0.0,1.0,94,0.00,,---,0.01,VWS V13.01,2013-07-21 11:07:00,
2013-07-21 07:08:00,73.5,71.7,29.86,NW,315,0.0,0.0,94,0.00,,---,0.01,VWS V13.01,2013-07-21 11:08:00,
2013-07-21 07:09:00,73.6,71.5,29.86,NW,315,0.0,0.0,93,0.00,,---,0.01,VWS V13.01,2013-07-21 11:09:00,
2013-07-21 07:10:00,73.6,71.5,29.86,NW,315,0.0,0.0,93,0.00,,---,0.01,VWS V13.01,2013-07-21 11:10:00,
2013-07-21 07:11:00,73.7,71.6,29.86,NW,315,0.0,0.0,93,0.00,,---,0.01,VWS V13.01,2013-07-21 11:11:00,
2013-07-21 07:12:00,73.7,71.6,29.86,NW,315,0.0,0.0,93,0.00,,---,0.01,VWS V13.01,2013-07-21 11:12:00,
2013-07-21 07:13:00,73.8,71.7,29.86,NW,315,0.0,1.0,93,0.00,,---,0.01,VWS V13.01,2013-07-21 11:13:00,
2013-07-21 07:14:00,73.8,71.7,29.86,NW,315,0.0,0.0,93,0.00,,---,0.01,VWS V13.01,2013-07-21 11:14:00,
2013-07-21 07:15:00,73.9,71.8,29.86,NW,315,0.0,1.0,93,0.00,,---,0.01,VWS V13.01,2013-07-21 11:15:00,
2013-07-21 07:16:00,73.9,71.8,29.86,NW,315,0.0,0.0,93,0.00,,---,0.01,VWS V13.01,2013-07-21 11:16:00,
2013-07-21 07:17:00,74.0,71.8,29.86,NW,315,0.0,0.0,93,0.00,,---,0.01,VWS V13.01,2013-07-21 11:17:00,
2013-07-21 07:18:00,74.0,71.8,29.86,NW,315,0.0,0.0,93,0.00,,---,0.01,VWS V13.01,2013-07-21 11:18:00,
2013-07-21 07:19:00,74.1,71.9,29.86,NW,315,0.0,1.0,93,0.00,,---,0.01,VWS V13.01,2013-07-21 11:19:00,
2013-07-21 07:20:00,74.1,71.9,29.86,NW,315,0.0,0.0,93,0.00,,---,0.01,VWS V13.01,2013-07-21 11:20:00,
2013-07-21 07:21:00,74.2,72.1,29.86,NW,315,0.0,0.0,93,0.00,,---,0.01,VWS V13.01,2013-07-21 11:21:00,
2013-07-21 07:22:00,74.2,72.1,29.86,SSW,202,0.0,1.0,93,0.00,,---,0.01,VWS V13.01,2013-07-21 11:22:00,
2013-07-21 07:23:00,74.3,72.2,29.86,SSW,202,0.0,0.0,93,0.00,,---,0.01,VWS V13.01,2013-07-21 11:23:00,
2013-07-21 07:24:00,74.3,72.2,29.86,SSW,202,0.0,0.0,93,0.00,,---,0.01,VWS V13.01,2013-07-21 11:24:00,
2013-07-21 07:25:00,74.4,72.2,29.86,SSW,202,0.0,0.0,93,0.00,,---,0.01,VWS V13.01,2013-07-21 11:25:00,
2013-07-21 07:26:00,74.4,72.2,29.86,SSW,202,0.0,0.0,93,0.00,,---,0.01,VWS V13.01,2013-07-21 11:26:00,
2013-07-21 07:27:00,74.5,72.3,29.86,SSW,202,0.0,0.0,93,0.00,,---,0.01,VWS V13.01,2013-07-21 11:27:00,
2013-07-21 07:28:00,74.5,72.0,29.87,SSW,202,0.0,0.0,92,0.00,,---,0.01,VWS V13.01,2013-07-21 11:28:00,
2013-07-21 07:29:00,74.6,72.4,29.86,SSW,202,0.0,0.0,93,0.00,,---,0.01,VWS V13.01,2013-07-21 11:29:00,
2013-07-21 07:30:00,74.6,72.1,29.86,SSW,202,0.0,0.0,92,0.00,,---,0.01,VWS V13.01,2013-07-21 11:30:00,
2013-07-21 07:31:00,74.7,72.2,29.87,SSW,202,0.0,1.0,92,0.00,,---,0.01,VWS V13.01,2013-07-21 11:31:00,
2013-07-21 07:32:00,74.8,72.3,29.87,SSW,202,0.0,0.0,92,0.00,,---,0.01,VWS V13.01,2013-07-21 11:32:00,
2013-07-21 07:33:00,74.8,72.3,29.87,SSW,202,0.0,1.0,92,0.00,,---,0.01,VWS V13.01,2013-07-21 11:33:00,
2013-07-21 07:34:00,74.9,72.4,29.87,SSW,202,0.0,0.0,92,0.00,,---,0.01,VWS V13.01,2013-07-21 11:34:00,
2013-07-21 07:35:00,74.9,72.4,29.87,SSW,202,0.0,0.0,92,0.00,,---,0.01,VWS V13.01,2013-07-21 11:35:00,
2013-07-21 07:36:00,75.0,72.5,29.87,WNW,292,0.0,4.0,92,0.00,,---,0.01,VWS V13.01,2013-07-21 11:36:00,
2013-07-21 07:37:00,75.1,72.6,29.87,WNW,292,0.0,1.0,92,0.00,,---,0.01,VWS V13.01,2013-07-21 11:37:00,
2013-07-21 07:38:00,75.1,72.6,29.87,WNW,292,0.0,2.0,92,0.00,,---,0.01,VWS V13.01,2013-07-21 11:38:00,
2013-07-21 07:39:00,75.2,72.7,29.87,WNW,292,0.0,1.0,92,0.00,,---,0.01,VWS V13.01,2013-07-21 11:39:00,
2013-07-21 07:40:00,75.3,72.8,29.87,WNW,292,0.0,0.0,92,0.00,,---,0.01,VWS V13.01,2013-07-21 11:40:00,
2013-07-21 07:41:00,75.3,72.8,29.87,WNW,292,0.0,1.0,92,0.00,,---,0.01,VWS V13.01,2013-07-21 11:41:00,
2013-07-21 07:42:00,75.4,72.9,29.87,WNW,292,0.0,0.0,92,0.00,,---,0.01,VWS V13.01,2013-07-21 11:42:00,
2013-07-21 07:43:00,75.5,73.0,29.87,WNW,292,0.0,1.0,92,0.00,,---,0.01,VWS V13.01,2013-07-21 11:43:00,
2013-07-21 07:44:00,75.6,73.1,29.87,WNW,292,0.0,0.0,92,0.00,,---,0.01,VWS V13.01,2013-07-21 11:44:00,
2013-07-21 07:45:00,75.7,73.2,29.87,WNW,292,0.0,0.0,92,0.00,,---,0.01,VWS V13.01,2013-07-21 11:45:00,
2013-07-21 07:46:00,75.7,73.2,29.87,WNW,292,0.0,0.0,92,0.00,,---,0.01,VWS V13.01,2013-07-21 11:46:00,
2013-07-21 07:47:00,75.8,73.3,29.88,WNW,292,0.0,0.0,92,0.00,,---,0.01,VWS V13.01,2013-07-21 11:47:00,
2013-07-21 07:48:00,75.9,73.1,29.88,SW,225,0.0,1.0,91,0.00,,---,0.01,VWS V13.01,2013-07-21 11:48:00,
2013-07-21 07:49:00,76.0,73.2,29.88,SW,225,0.0,0.0,91,0.00,,---,0.01,VWS V13.01,2013-07-21 11:49:00,
2013-07-21 07:50:00,76.0,73.2,29.88,SW,225,0.0,0.0,91,0.00,,---,0.01,VWS V13.01,2013-07-21 11:50:00,
2013-07-21 07:51:00,76.1,73.3,29.88,SW,225,0.0,0.0,91,0.00,,---,0.01,VWS V13.01,2013-07-21 11:51:00,
2013-07-21 07:52:00,76.1,73.0,29.88,SW,225,0.0,0.0,90,0.00,,---,0.01,VWS V13.01,2013-07-21 11:52:00,
2013-07-21 07:53:00,76.2,73.1,29.88,SW,225,0.0,0.0,90,0.00,,---,0.01,VWS V13.01,2013-07-21 11:53:00,
2013-07-21 07:54:00,76.3,73.2,29.88,WNW,292,0.0,2.0,90,0.00,,---,0.01,VWS V13.01,2013-07-21 11:54:00,
2013-07-21 07:55:00,76.3,73.2,29.88,WNW,292,0.0,0.0,90,0.00,,---,0.01,VWS V13.01,2013-07-21 11:55:00,
2013-07-21 07:56:00,76.4,73.2,29.88,WNW,292,0.0,1.0,90,0.00,,---,0.01,VWS V13.01,2013-07-21 11:56:00,
2013-07-21 07:57:00,76.4,73.2,29.88,WNW,292,0.0,0.0,90,0.00,,---,0.01,VWS V13.01,2013-07-21 11:57:00,
2013-07-21 07:58:00,76.5,73.3,29.88,WNW,292,0.0,1.0,90,0.00,,---,0.01,VWS V13.01,2013-07-21 11:58:00,
2013-07-21 07:59:00,76.6,73.4,29.88,WNW,292,0.0,0.0,90,0.00,,---,0.01,VWS V13.01,2013-07-21 11:59:00,
2013-07-21 08:00:00,76.6,73.4,29.88,WNW,292,0.0,1.0,90,0.00,,---,0.01,VWS V13.01,2013-07-21 12:00:00,
2013-07-21 08:01:00,76.7,73.6,29.88,NW,315,0.0,1.0,90,0.00,,---,0.01,VWS V13.01,2013-07-21 12:01:00,
2013-07-21 08:02:00,76.7,73.6,29.88,NW,315,0.0,2.0,90,0.00,,---,0.01,VWS V13.01,2013-07-21 12:02:00,
2013-07-21 08:03:00,76.8,73.7,29.88,WNW,292,0.0,1.0,90,0.00,,---,0.01,VWS V13.01,2013-07-21 12:03:00,
2013-07-21 08:04:00,76.9,73.8,29.88,WNW,292,0.0,1.0,90,0.00,,---,0.01,VWS V13.01,2013-07-21 12:04:00,
2013-07-21 08:05:00,76.9,73.8,29.88,NNW,338,1.0,4.0,90,0.00,,---,0.01,VWS V13.01,2013-07-21 12:05:00,
2013-07-21 08:06:00,77.0,73.8,29.88,NNW,338,0.0,1.0,90,0.00,,---,0.01,VWS V13.01,2013-07-21 12:06:00,
2013-07-21 08:07:00,77.0,73.8,29.88,NNW,338,0.0,1.0,90,0.00,,---,0.01,VWS V13.01,2013-07-21 12:07:00,
2013-07-21 08:08:00,77.1,73.6,29.88,NNW,338,0.0,0.0,89,0.00,,---,0.01,VWS V13.01,2013-07-21 12:08:00,
2013-07-21 08:09:00,77.2,73.7,29.88,NNW,338,1.0,4.0,89,0.00,,---,0.01,VWS V13.01,2013-07-21 12:09:00,
2013-07-21 08:10:00,77.2,73.7,29.88,NW,315,0.0,2.0,89,0.00,,---,0.01,VWS V13.01,2013-07-21 12:10:00,
2013-07-21 08:11:00,77.3,73.8,29.88,NW,315,0.0,2.0,89,0.00,,---,0.01,VWS V13.01,2013-07-21 12:11:00,
2013-07-21 08:12:00,77.3,73.8,29.88,West,270,0.0,1.0,89,0.00,,---,0.01,VWS V13.01,2013-07-21 12:12:00,
2013-07-21 08:13:00,77.4,73.9,29.88,West,270,0.0,0.0,89,0.00,,---,0.01,VWS V13.01,2013-07-21 12:13:00,
2013-07-21 08:14:00,77.4,73.9,29.88,NW,315,0.0,1.0,89,0.00,,---,0.01,VWS V13.01,2013-07-21 12:14:00,
2013-07-21 08:15:00,77.4,73.6,29.88,NW,315,0.0,0.0,88,0.00,,---,0.01,VWS V13.01,2013-07-21 12:15:00,
2013-07-21 08:16:00,77.5,73.7,29.88,NW,315,0.0,0.0,88,0.00,,---,0.01,VWS V13.01,2013-07-21 12:16:00,
2013-07-21 08:17:00,77.5,73.7,29.89,NW,315,0.0,1.0,88,0.00,,---,0.01,VWS V13.01,2013-07-21 12:17:00,
2013-07-21 08:18:00,77.6,73.8,29.89,WNW,292,1.0,9.0,88,0.00,,---,0.01,VWS V13.01,2013-07-21 12:18:00,
2013-07-21 08:19:00,77.6,73.8,29.89,WNW,292,0.0,0.0,88,0.00,,---,0.01,VWS V13.01,2013-07-21 12:19:00,
2013-07-21 08:20:00,77.6,73.8,29.89,WNW,292,0.0,0.0,88,0.00,,---,0.01,VWS V13.01,2013-07-21 12:20:00,
2013-07-21 08:21:00,77.7,73.9,29.89,WNW,292,0.0,0.0,88,0.00,,---,0.01,VWS V13.01,2013-07-21 12:21:00,
2013-07-21 08:22:00,77.7,73.9,29.89,NW,315,1.0,5.0,88,0.00,,---,0.01,VWS V13.01,2013-07-21 12:22:00,
2013-07-21 08:23:00,77.7,73.5,29.89,NW,315,0.0,1.0,87,0.00,,---,0.01,VWS V13.01,2013-07-21 12:23:00,
2013-07-21 08:24:00,77.8,74.0,29.89,NW,315,0.0,0.0,88,0.00,,---,0.01,VWS V13.01,2013-07-21 12:24:00,
2013-07-21 08:25:00,77.8,74.0,29.89,NW,315,0.0,0.0,88,0.00,,---,0.01,VWS V13.01,2013-07-21 12:25:00,
2013-07-21 08:26:00,77.8,74.0,29.89,NW,315,0.0,0.0,88,0.00,,---,0.01,VWS V13.01,2013-07-21 12:26:00,
2013-07-21 08:27:00,77.9,74.1,29.89,NW,315,0.0,0.0,88,0.00,,---,0.01,VWS V13.01,2013-07-21 12:27:00,
2013-07-21 08:28:00,77.9,74.1,29.89,NW,315,0.0,0.0,88,0.00,,---,0.01,VWS V13.01,2013-07-21 12:28:00,
2013-07-21 08:29:00,78.0,74.2,29.89,NW,315,0.0,1.0,88,0.00,,---,0.01,VWS V13.01,2013-07-21 12:29:00,
2013-07-21 08:30:00,78.0,74.2,29.89,NW,315,0.0,0.0,88,0.00,,---,0.01,VWS V13.01,2013-07-21 12:30:00,
2013-07-21 08:31:00,78.0,73.8,29.89,NW,315,0.0,2.0,87,0.00,,---,0.01,VWS V13.01,2013-07-21 12:31:00,
2013-07-21 08:32:00,78.0,73.8,29.89,NW,315,0.0,2.0,87,0.00,,---,0.01,VWS V13.01,2013-07-21 12:32:00,
2013-07-21 08:33:00,78.0,73.8,29.89,NW,315,1.0,4.0,87,0.00,,---,0.01,VWS V13.01,2013-07-21 12:33:00,
2013-07-21 08:34:00,78.0,73.5,29.89,NW,315,0.0,1.0,86,0.00,,---,0.01,VWS V13.01,2013-07-21 12:34:00,
2013-07-21 08:35:00,78.0,73.5,29.89,NW,315,0.0,0.0,86,0.00,,---,0.01,VWS V13.01,2013-07-21 12:35:00,
2013-07-21 08:36:00,78.0,73.5,29.89,NW,315,0.0,2.0,86,0.00,,---,0.01,VWS V13.01,2013-07-21 12:36:00,
2013-07-21 08:37:00,78.0,73.5,29.89,NW,315,1.0,3.0,86,0.00,,---,0.01,VWS V13.01,2013-07-21 12:37:00,
2013-07-21 08:38:00,78.1,73.6,29.89,NW,315,0.0,2.0,86,0.00,,---,0.01,VWS V13.01,2013-07-21 12:38:00,
2013-07-21 08:39:00,78.1,73.6,29.89,NNW,338,0.0,1.0,86,0.00,,---,0.01,VWS V13.01,2013-07-21 12:39:00,
2013-07-21 08:40:00,78.1,73.9,29.89,NNW,338,0.0,0.0,87,0.00,,---,0.01,VWS V13.01,2013-07-21 12:40:00,
2013-07-21 08:41:00,78.1,73.9,29.89,NNW,338,0.0,1.0,87,0.00,,---,0.01,VWS V13.01,2013-07-21 12:41:00,
2013-07-21 08:42:00,78.1,73.6,29.89,NNW,338,0.0,1.0,86,0.00,,---,0.01,VWS V13.01,2013-07-21 12:42:00,
2013-07-21 08:43:00,78.1,73.6,29.89,NW,315,1.0,4.0,86,0.00,,---,0.01,VWS V13.01,2013-07-21 12:43:00,
2013-07-21 08:44:00,78.2,73.7,29.89,NW,315,0.0,2.0,86,0.00,,---,0.01,VWS V13.01,2013-07-21 12:44:00,
2013-07-21 08:45:00,78.2,73.7,29.89,WNW,292,0.0,1.0,86,0.00,,---,0.01,VWS V13.01,2013-07-21 12:45:00,
2013-07-21 08:46:00,78.2,74.0,29.89,NNW,338,1.0,3.0,87,0.00,,---,0.01,VWS V13.01,2013-07-21 12:46:00,
2013-07-21 08:47:00,78.3,74.1,29.89,WNW,292,1.0,5.0,87,0.00,,---,0.01,VWS V13.01,2013-07-21 12:47:00,
2013-07-21 08:48:00,78.4,74.2,29.89,NW,315,1.0,5.0,87,0.00,,---,0.01,VWS V13.01,2013-07-21 12:48:00,
2013-07-21 08:49:00,78.5,74.0,29.89,WNW,292,0.0,1.0,86,0.00,,---,0.01,VWS V13.01,2013-07-21 12:49:00,
2013-07-21 08:50:00,78.6,74.1,29.89,WNW,292,0.0,0.0,86,0.00,,---,0.01,VWS V13.01,2013-07-21 12:50:00,
2013-07-21 08:51:00,78.6,74.1,29.89,WNW,292,0.0,0.0,86,0.00,,---,0.01,VWS V13.01,2013-07-21 12:51:00,
2013-07-21 08:52:00,78.7,74.2,29.89,WNW,292,0.0,0.0,86,0.00,,---,0.01,VWS V13.01,2013-07-21 12:52:00,
2013-07-21 08:53:00,78.7,74.2,29.88,WNW,292,0.0,1.0,86,0.00,,---,0.01,VWS V13.01,2013-07-21 12:53:00,
2013-07-21 08:54:00,78.8,73.9,29.88,North,0,1.0,4.0,85,0.00,,---,0.01,VWS V13.01,2013-07-21 12:54:00,
2013-07-21 08:55:00,78.9,74.0,29.88,North,0,0.0,2.0,85,0.00,,---,0.01,VWS V13.01,2013-07-21 12:55:00,
2013-07-21 08:56:00,78.9,74.0,29.88,North,0,0.0,0.0,85,0.00,,---,0.01,VWS V13.01,2013-07-21 12:56:00,
2013-07-21 08:57:00,78.9,74.0,29.88,North,0,0.0,0.0,85,0.00,,---,0.01,VWS V13.01,2013-07-21 12:57:00,
2013-07-21 08:58:00,79.0,74.1,29.88,North,0,0.0,0.0,85,0.00,,---,0.01,VWS V13.01,2013-07-21 12:58:00,
2013-07-21 08:59:00,79.0,74.1,29.88,NNW,338,0.0,1.0,85,0.00,,---,0.01,VWS V13.01,2013-07-21 12:59:00,
2013-07-21 09:00:00,79.1,74.2,29.88,WNW,292,0.0,1.0,85,0.00,,---,0.01,VWS V13.01,2013-07-21 13:00:00,
2013-07-21 09:01:00,79.1,73.8,29.88,WNW,292,0.0,0.0,84,0.00,,---,0.01,VWS V13.01,2013-07-21 13:01:00,
2013-07-21 09:02:00,79.1,73.8,29.88,NW,315,0.0,1.0,84,0.00,,---,0.01,VWS V13.01,2013-07-21 13:02:00,
2013-07-21 09:03:00,79.2,73.9,29.88,WNW,292,0.0,1.0,84,0.00,,---,0.01,VWS V13.01,2013-07-21 13:03:00,
2013-07-21 09:04:00,79.2,73.9,29.88,WNW,292,0.0,2.0,84,0.00,,---,0.01,VWS V13.01,2013-07-21 13:04:00,
2013-07-21 09:05:00,79.2,73.9,29.88,WNW,292,0.0,0.0,84,0.00,,---,0.01,VWS V13.01,2013-07-21 13:05:00,
2013-07-21 09:06:00,79.3,74.1,29.88,WNW,292,0.0,1.0,84,0.00,,---,0.01,VWS V13.01,2013-07-21 13:06:00,
2013-07-21 09:07:00,79.3,74.1,29.88,WNW,292,0.0,0.0,84,0.00,,---,0.01,VWS V13.01,2013-07-21 13:07:00,
2013-07-21 09:08:00,79.3,74.1,29.88,WNW,292,0.0,1.0,84,0.00,,---,0.01,VWS V13.01,2013-07-21 13:08:00,
2013-07-21 09:09:00,79.4,74.2,29.88,WNW,292,0.0,0.0,84,0.00,,---,0.01,VWS V13.01,2013-07-21 13:09:00,
2013-07-21 09:10:00,79.4,74.2,29.88,NW,315,2.0,7.0,84,0.00,,---,0.01,VWS V13.01,2013-07-21 13:10:00,
2013-07-21 09:11:00,79.5,73.9,29.88,NW,315,1.0,5.0,83,0.00,,---,0.01,VWS V13.01,2013-07-21 13:11:00,
2013-07-21 09:12:00,79.6,74.0,29.88,NW,315,0.0,0.0,83,0.00,,---,0.01,VWS V13.01,2013-07-21 13:12:00,
2013-07-21 09:13:00,79.6,74.0,29.88,West,270,0.0,1.0,83,0.00,,---,0.01,VWS V13.01,2013-07-21 13:13:00,
2013-07-21 09:14:00,79.7,74.1,29.88,NNE,22,0.0,2.0,83,0.00,,---,0.01,VWS V13.01,2013-07-21 13:14:00,
2013-07-21 09:15:00,79.7,74.1,29.88,NW,315,0.0,1.0,83,0.00,,---,0.01,VWS V13.01,2013-07-21 13:15:00,
2013-07-21 09:16:00,79.8,74.2,29.88,NW,315,0.0,0.0,83,0.00,,---,0.01,VWS V13.01,2013-07-21 13:16:00,
2013-07-21 09:17:00,79.9,74.3,29.88,NW,315,0.0,0.0,83,0.00,,---,0.01,VWS V13.01,2013-07-21 13:17:00,
2013-07-21 09:18:00,79.9,74.3,29.89,NW,315,0.0,0.0,83,0.00,,---,0.01,VWS V13.01,2013-07-21 13:18:00,
2013-07-21 09:19:00,80.0,74.4,29.88,NW,315,0.0,1.0,83,0.00,,---,0.01,VWS V13.01,2013-07-21 13:19:00,
2013-07-21 09:20:00,80.0,74.4,29.88,NW,315,0.0,1.0,83,0.00,,---,0.01,VWS V13.01,2013-07-21 13:20:00,
2013-07-21 09:30:00,80.2,73.8,29.89,WNW,292,0.0,1.0,81,0.00,,---,0.01,VWS V13.01,2013-07-21 13:30:00,
2013-07-21 09:35:00,80.1,74.1,29.89,NW,325,0.0,0.0,82,0.00,,---,0.01,VWS V13.01,2013-07-21 13:35:00,
2013-07-21 09:40:00,80.0,74.0,29.89,NW,312,0.0,0.0,82,0.00,,---,0.01,VWS V13.01,2013-07-21 13:40:00,
2013-07-21 09:45:00,80.0,74.4,29.89,NW,311,0.0,0.0,83,0.00,,---,0.01,VWS V13.01,2013-07-21 13:45:00,
2013-07-21 09:50:00,80.0,74.4,29.89,NW,311,0.0,0.0,83,0.00,,---,0.01,VWS V13.01,2013-07-21 13:50:00,
2013-07-21 09:55:00,80.0,74.4,29.88,NW,311,0.0,0.0,83,0.00,,---,0.01,VWS V13.01,2013-07-21 13:55:00,
2013-07-21 10:00:00,80.0,74.4,29.88,WNW,286,0.0,2.0,83,0.00,,---,0.01,VWS V13.01,2013-07-21 14:00:00,
2013-07-21 10:05:00,80.0,74.4,29.89,WNW,286,0.0,0.0,83,0.00,,---,0.01,VWS V13.01,2013-07-21 14:05:00,
2013-07-21 10:10:00,80.0,74.0,29.88,NE,49,0.0,0.0,82,0.00,,---,0.01,VWS V13.01,2013-07-21 14:10:00,
2013-07-21 10:15:00,80.1,74.1,29.88,NE,50,0.0,2.0,82,0.00,,---,0.01,VWS V13.01,2013-07-21 14:15:00,
2013-07-21 10:20:00,80.2,74.2,29.88,NE,50,0.0,0.0,82,0.00,,---,0.01,VWS V13.01,2013-07-21 14:20:00,
2013-07-21 10:25:00,80.5,74.5,29.88,NE,50,0.0,0.0,82,0.00,,---,0.01,VWS V13.01,2013-07-21 14:25:00,
2013-07-21 10:30:00,80.9,74.5,29.88,NE,51,0.0,0.0,81,0.00,,---,0.01,VWS V13.01,2013-07-21 14:30:00,
2013-07-21 10:35:00,81.2,74.4,29.88,ENE,75,0.0,0.0,80,0.00,,---,0.01,VWS V13.01,2013-07-21 14:35:00,
2013-07-21 10:40:00,81.2,74.4,29.88,NNW,346,0.0,0.0,80,0.00,,---,0.01,VWS V13.01,2013-07-21 14:40:00,
2013-07-21 10:45:00,81.3,74.5,29.88,NE,52,0.0,4.0,80,0.00,,---,0.01,VWS V13.01,2013-07-21 14:45:00,
2013-07-21 10:50:00,81.3,74.5,29.88,NE,56,0.0,0.0,80,0.00,,---,0.01,VWS V13.01,2013-07-21 14:50:00,
2013-07-21 10:55:00,81.2,74.4,29.89,NE,56,0.0,0.0,80,0.00,,---,0.01,VWS V13.01,2013-07-21 14:55:00,
2013-07-21 11:00:00,81.2,74.4,29.89,ENE,63,0.0,1.0,80,0.00,,---,0.01,VWS V13.01,2013-07-21 15:00:00,
2013-07-21 11:05:00,81.1,74.3,29.90,NE,40,0.0,2.0,80,0.00,,---,0.01,VWS V13.01,2013-07-21 15:05:00,
2013-07-21 11:10:00,80.9,74.5,29.90,NNE,28,0.0,0.0,81,0.00,,---,0.01,VWS V13.01,2013-07-21 15:10:00,
2013-07-21 11:15:00,81.0,74.2,29.90,ENE,59,0.0,0.0,80,0.00,,---,0.01,VWS V13.01,2013-07-21 15:15:00,
2013-07-21 11:20:00,81.3,74.5,29.90,NE,36,0.0,1.0,80,0.00,,---,0.01,VWS V13.01,2013-07-21 15:20:00,
2013-07-21 11:25:00,81.7,74.6,29.90,ENE,62,5.0,5.0,79,0.00,,---,0.01,VWS V13.01,2013-07-21 15:25:00,
2013-07-21 11:30:00,82.0,74.8,29.90,NE,55,0.0,0.0,79,0.00,,---,0.01,VWS V13.01,2013-07-21 15:30:00,
2013-07-21 11:35:00,82.3,75.1,29.89,NE,55,0.0,0.0,79,0.00,,---,0.01,VWS V13.01,2013-07-21 15:35:00,
2013-07-21 11:40:00,82.9,75.3,29.89,East,80,0.0,0.0,78,0.00,,---,0.01,VWS V13.01,2013-07-21 15:40:00,
2013-07-21 11:45:00,83.5,75.5,29.89,SE,134,0.0,1.0,77,0.00,,---,0.01,VWS V13.01,2013-07-21 15:45:00,
2013-07-21 11:50:00,84.0,75.6,29.89,ENE,59,3.0,3.0,76,0.00,,---,0.01,VWS V13.01,2013-07-21 15:50:00,
2013-07-21 11:55:00,84.3,75.5,29.89,NE,46,0.0,0.0,75,0.00,,---,0.01,VWS V13.01,2013-07-21 15:55:00,
2013-07-21 12:00:00,84.3,75.5,29.89,NNE,24,0.0,0.0,75,0.00,,---,0.01,VWS V13.01,2013-07-21 16:00:00,
2013-07-21 12:05:00,84.7,76.3,29.89,SSE,149,0.0,0.0,76,0.00,,---,0.01,VWS V13.01,2013-07-21 16:05:00,
2013-07-21 12:10:00,85.1,75.9,29.89,East,99,0.0,3.0,74,0.00,,---,0.01,VWS V13.01,2013-07-21 16:10:00,
2013-07-21 12:15:00,85.1,75.9,29.89,SE,140,2.0,7.0,74,0.00,,---,0.01,VWS V13.01,2013-07-21 16:15:00,
2013-07-21 12:20:00,85.0,76.2,29.90,SE,140,0.0,0.0,75,0.00,,---,0.01,VWS V13.01,2013-07-21 16:20:00,
2013-07-21 12:25:00,85.2,76.0,29.90,SE,138,6.0,8.0,74,0.00,,---,0.01,VWS V13.01,2013-07-21 16:25:00,
2013-07-21 12:30:00,85.6,76.0,29.90,SSE,153,0.0,3.0,73,0.00,,---,0.01,VWS V13.01,2013-07-21 16:30:00,
2013-07-21 12:35:00,85.8,76.2,29.90,SSE,160,0.0,1.0,73,0.00,,---,0.01,VWS V13.01,2013-07-21 16:35:00,
2013-07-21 12:40:00,85.8,75.7,29.90,SE,134,1.0,5.0,72,0.00,,---,0.01,VWS V13.01,2013-07-21 16:40:00,
2013-07-21 12:45:00,85.5,75.9,29.90,ENE,59,2.0,2.0,73,0.00,,---,0.01,VWS V13.01,2013-07-21 16:45:00,
2013-07-21 12:50:00,84.8,75.2,29.90,East,101,0.0,1.0,73,0.00,,---,0.01,VWS V13.01,2013-07-21 16:50:00,
2013-07-21 12:55:00,84.4,75.2,29.90,ESE,111,0.0,2.0,74,0.00,,---,0.01,VWS V13.01,2013-07-21 16:55:00,
2013-07-21 13:00:00,84.1,74.9,29.90,NNE,32,0.0,0.0,74,0.00,,---,0.01,VWS V13.01,2013-07-21 17:00:00,
2013-07-21 13:05:00,84.1,74.9,29.90,ENE,68,0.0,1.0,74,0.00,,---,0.01,VWS V13.01,2013-07-21 17:05:00,
2013-07-21 13:10:00,84.1,74.5,29.90,ENE,69,6.0,6.0,73,0.00,,---,0.01,VWS V13.01,2013-07-21 17:10:00,
2013-07-21 13:15:00,83.7,74.5,29.90,ENE,66,4.0,5.0,74,0.00,,---,0.01,VWS V13.01,2013-07-21 17:15:00,
2013-07-21 13:20:00,83.7,74.9,29.90,NE,36,1.0,3.0,75,0.00,,---,0.01,VWS V13.01,2013-07-21 17:20:00,
2013-07-21 13:25:00,84.1,74.9,29.90,East,90,4.0,4.0,74,0.00,,---,0.01,VWS V13.01,2013-07-21 17:25:00,
2013-07-21 13:30:00,84.2,75.4,29.90,SE,139,0.0,3.0,75,0.00,,---,0.01,VWS V13.01,2013-07-21 17:30:00,
2013-07-21 13:35:00,84.6,75.4,29.90,SSE,163,0.0,0.0,74,0.00,,---,0.01,VWS V13.01,2013-07-21 17:35:00,
2013-07-21 13:40:00,84.7,75.5,29.90,ESE,123,0.0,1.0,74,0.00,,---,0.01,VWS V13.01,2013-07-21 17:40:00,
2013-07-21 13:45:00,84.2,75.4,29.90,NNE,19,1.0,2.0,75,0.00,,---,0.01,VWS V13.01,2013-07-21 17:45:00,
2013-07-21 13:50:00,83.9,75.1,29.90,ENE,63,7.0,7.0,75,0.00,,---,0.01,VWS V13.01,2013-07-21 17:50:00,
2013-07-21 13:55:00,84.0,75.6,29.90,ENE,67,1.0,4.0,76,0.00,,---,0.01,VWS V13.01,2013-07-21 17:55:00,
2013-07-21 14:00:00,84.3,75.5,29.90,NE,42,2.0,9.0,75,0.00,,---,0.01,VWS V13.01,2013-07-21 18:00:00,
2013-07-21 14:05:00,84.5,75.7,29.90,NE,36,1.0,1.0,75,0.00,,---,0.01,VWS V13.01,2013-07-21 18:05:00,
2013-07-21 14:10:00,84.7,75.5,29.90,NE,39,0.0,2.0,74,0.00,,---,0.01,VWS V13.01,2013-07-21 18:10:00,
2013-07-21 14:15:00,84.8,74.8,29.90,NE,55,0.0,2.0,72,0.00,,---,0.01,VWS V13.01,2013-07-21 18:15:00,
2013-07-21 14:20:00,84.5,75.3,29.91,East,88,0.0,2.0,74,0.00,,---,0.01,VWS V13.01,2013-07-21 18:20:00,
2013-07-21 14:25:00,84.3,75.5,29.91,ENE,76,0.0,3.0,75,0.00,,---,0.01,VWS V13.01,2013-07-21 18:25:00,
2013-07-21 14:30:00,84.0,75.2,29.90,North,360,1.0,3.0,75,0.00,,---,0.01,VWS V13.01,2013-07-21 18:30:00,
2013-07-21 14:35:00,83.3,74.6,29.90,East,84,0.0,1.0,75,0.00,,---,0.01,VWS V13.01,2013-07-21 18:35:00,
2013-07-21 14:40:00,82.8,75.2,29.90,ENE,63,2.0,6.0,78,0.00,,---,0.01,VWS V13.01,2013-07-21 18:40:00,
2013-07-21 14:45:00,82.6,75.1,29.90,East,82,2.0,4.0,78,0.00,,---,0.01,VWS V13.01,2013-07-21 18:45:00,
2013-07-21 14:50:00,82.7,75.2,29.90,NE,44,4.0,11.0,78,0.00,,---,0.01,VWS V13.01,2013-07-21 18:50:00,
2013-07-21 14:55:00,82.3,74.4,29.90,NE,35,0.0,4.0,77,0.00,,---,0.01,VWS V13.01,2013-07-21 18:55:00,
2013-07-21 15:00:00,81.6,74.1,29.90,ESE,102,0.0,9.0,78,0.00,,---,0.01,VWS V13.01,2013-07-21 19:00:00,
2013-07-21 15:05:00,80.9,73.8,29.90,ENE,64,5.0,7.0,79,0.00,,---,0.01,VWS V13.01,2013-07-21 19:05:00,
2013-07-21 15:10:00,80.8,74.4,29.90,NE,56,1.0,6.0,81,0.00,,---,0.01,VWS V13.01,2013-07-21 19:10:00,
2013-07-21 15:15:00,80.7,74.3,29.90,NE,36,3.0,11.0,81,0.00,,---,0.01,VWS V13.01,2013-07-21 19:15:00,
2013-07-21 15:20:00,80.5,74.5,29.91,NE,53,1.0,2.0,82,0.00,,---,0.01,VWS V13.01,2013-07-21 19:20:00,
2013-07-21 15:25:00,80.2,74.6,29.91,SSE,147,4.0,5.0,83,0.00,,---,0.01,VWS V13.01,2013-07-21 19:25:00,
2013-07-21 15:30:00,80.2,74.9,29.91,SSE,161,1.0,3.0,84,0.00,,---,0.01,VWS V13.01,2013-07-21 19:30:00,
2013-07-21 15:35:00,80.7,75.1,29.91,ENE,57,2.0,7.0,83,0.00,,---,0.01,VWS V13.01,2013-07-21 19:35:00,
2013-07-21 15:40:00,81.1,75.4,29.90,ENE,74,0.0,0.0,83,0.00,,---,0.01,VWS V13.01,2013-07-21 19:40:00,
2013-07-21 15:45:00,81.3,75.3,29.90,East,80,8.0,9.0,82,0.00,,---,0.01,VWS V13.01,2013-07-21 19:45:00,
2013-07-21 15:50:00,81.1,75.1,29.90,NNE,25,1.0,3.0,82,0.00,,---,0.01,VWS V13.01,2013-07-21 19:50:00,
2013-07-21 15:55:00,81.0,75.0,29.90,ENE,69,7.0,7.0,82,0.00,,---,0.01,VWS V13.01,2013-07-21 19:55:00,
2013-07-21 16:00:00,81.2,75.2,29.90,SSE,148,1.0,1.0,82,0.00,,---,0.01,VWS V13.01,2013-07-21 20:00:00,
2013-07-21 16:05:00,81.1,74.7,29.90,South,179,0.0,1.0,81,0.00,,---,0.01,VWS V13.01,2013-07-21 20:05:00,
2013-07-21 16:10:00,81.1,75.1,29.90,ENE,71,0.0,3.0,82,0.00,,---,0.01,VWS V13.01,2013-07-21 20:10:00,
2013-07-21 16:15:00,81.1,74.7,29.90,ENE,76,0.0,0.0,81,0.00,,---,0.01,VWS V13.01,2013-07-21 20:15:00,
2013-07-21 16:20:00,81.1,74.7,29.90,ESE,105,1.0,1.0,81,0.00,,---,0.01,VWS V13.01,2013-07-21 20:20:00,
2013-07-21 16:25:00,81.2,74.8,29.90,ESE,111,1.0,2.0,81,0.00,,---,0.01,VWS V13.01,2013-07-21 20:25:00,
2013-07-21 16:30:00,81.1,74.7,29.90,ENE,68,0.0,3.0,81,0.00,,---,0.01,VWS V13.01,2013-07-21 20:30:00,
2013-07-21 16:35:00,80.8,74.4,29.89,NE,54,0.0,0.0,81,0.00,,---,0.01,VWS V13.01,2013-07-21 20:35:00,
2013-07-21 16:40:00,80.4,74.0,29.89,ENE,69,0.0,3.0,81,0.00,,---,0.01,VWS V13.01,2013-07-21 20:40:00,
2013-07-21 16:45:00,80.1,74.1,29.90,SE,125,0.0,1.0,82,0.00,,---,0.01,VWS V13.01,2013-07-21 20:45:00,
2013-07-21 16:50:00,80.0,74.0,29.89,SE,132,0.0,0.0,82,0.00,,---,0.01,VWS V13.01,2013-07-21 20:50:00,
2013-07-21 16:55:00,79.9,74.3,29.89,SE,132,0.0,0.0,83,0.00,,---,0.01,VWS V13.01,2013-07-21 20:55:00,
2013-07-21 17:00:00,79.7,74.4,29.89,ENE,61,0.0,0.0,84,0.00,,---,0.01,VWS V13.01,2013-07-21 21:00:00,
2013-07-21 17:05:00,79.7,74.4,29.89,ENE,61,0.0,0.0,84,0.00,,---,0.01,VWS V13.01,2013-07-21 21:05:00,
2013-07-21 17:10:00,79.6,74.3,29.89,ENE,72,0.0,0.0,84,0.00,,---,0.01,VWS V13.01,2013-07-21 21:10:00,
2013-07-21 17:15:00,79.5,74.6,29.90,ENE,77,0.0,0.0,85,0.00,,---,0.01,VWS V13.01,2013-07-21 21:15:00,
2013-07-21 17:20:00,79.4,74.5,29.90,ENE,68,0.0,0.0,85,0.00,,---,0.01,VWS V13.01,2013-07-21 21:20:00,
2013-07-21 17:25:00,79.3,74.4,29.89,ENE,68,0.0,0.0,85,0.00,,---,0.01,VWS V13.01,2013-07-21 21:25:00,
2013-07-21 17:30:00,79.2,74.3,29.89,ENE,69,0.0,0.0,85,0.00,,---,0.01,VWS V13.01,2013-07-21 21:30:00,
2013-07-21 17:35:00,79.2,74.7,29.89,ENE,69,0.0,0.0,86,0.00,,---,0.01,VWS V13.01,2013-07-21 21:35:00,
2013-07-21 17:40:00,79.2,74.7,29.90,ENE,69,0.0,0.0,86,0.00,,---,0.01,VWS V13.01,2013-07-21 21:40:00,
2013-07-21 17:45:00,79.1,74.6,29.90,ENE,69,0.0,1.0,86,0.00,,---,0.01,VWS V13.01,2013-07-21 21:45:00,
2013-07-21 17:50:00,78.8,74.6,29.89,ENE,68,0.0,0.0,87,0.00,,---,0.01,VWS V13.01,2013-07-21 21:50:00,
2013-07-21 17:55:00,78.5,74.7,29.89,ENE,68,0.0,0.0,88,0.00,,---,0.01,VWS V13.01,2013-07-21 21:55:00,
2013-07-21 18:00:00,78.3,74.8,29.90,NE,40,0.0,0.0,89,0.01,,---,0.02,VWS V13.01,2013-07-21 22:00:00,
2013-07-21 18:05:00,78.2,74.7,29.90,NE,40,0.0,0.0,89,0.01,,---,0.02,VWS V13.01,2013-07-21 22:05:00,
2013-07-21 18:10:00,78.1,74.9,29.89,NE,40,0.0,0.0,90,0.01,,---,0.02,VWS V13.01,2013-07-21 22:10:00,
2013-07-21 18:15:00,78.1,75.3,29.89,NE,41,0.0,0.0,91,0.01,,---,0.02,VWS V13.01,2013-07-21 22:15:00,
2013-07-21 18:20:00,78.2,75.4,29.90,NE,40,0.0,0.0,91,0.01,,---,0.02,VWS V13.01,2013-07-21 22:20:00,
2013-07-21 18:25:00,78.2,75.4,29.91,NE,40,0.0,0.0,91,0.01,,---,0.02,VWS V13.01,2013-07-21 22:25:00,
2013-07-21 18:30:00,78.3,75.5,29.91,SSE,158,0.0,0.0,91,0.01,,---,0.02,VWS V13.01,2013-07-21 22:30:00,
2013-07-21 18:35:00,78.3,75.5,29.91,SSE,158,0.0,0.0,91,0.01,,---,0.02,VWS V13.01,2013-07-21 22:35:00,
2013-07-21 18:40:00,78.3,75.5,29.91,SSE,158,0.0,0.0,91,0.01,,---,0.02,VWS V13.01,2013-07-21 22:40:00,
2013-07-21 18:45:00,78.2,75.0,29.90,SSE,158,0.0,0.0,90,0.01,,---,0.02,VWS V13.01,2013-07-21 22:45:00,
2013-07-21 18:50:00,78.1,74.9,29.90,SSE,158,0.0,0.0,90,0.01,,---,0.02,VWS V13.01,2013-07-21 22:50:00,
2013-07-21 18:55:00,78.1,75.3,29.90,SSE,158,0.0,0.0,91,0.01,,---,0.02,VWS V13.01,2013-07-21 22:55:00,
2013-07-21 19:00:00,78.1,75.3,29.90,SSE,158,0.0,0.0,91,0.01,,---,0.02,VWS V13.01,2013-07-21 23:00:00,
2013-07-21 19:05:00,78.1,74.9,29.90,SSE,158,0.0,0.0,90,0.00,,---,0.02,VWS V13.01,2013-07-21 23:05:00,
2013-07-21 19:10:00,78.0,74.8,29.90,SSE,158,0.0,0.0,90,0.00,,---,0.02,VWS V13.01,2013-07-21 23:10:00,
2013-07-21 19:15:00,78.0,74.8,29.90,SSE,158,0.0,0.0,90,0.00,,---,0.02,VWS V13.01,2013-07-21 23:15:00,
2013-07-21 19:20:00,78.0,74.8,29.90,SSE,158,0.0,0.0,90,0.00,,---,0.02,VWS V13.01,2013-07-21 23:20:00,
2013-07-21 19:25:00,78.0,75.2,29.90,SSE,158,0.0,0.0,91,0.00,,---,0.02,VWS V13.01,2013-07-21 23:25:00,
2013-07-21 19:30:00,77.9,74.7,29.89,SSE,158,0.0,0.0,90,0.00,,---,0.02,VWS V13.01,2013-07-21 23:30:00,
2013-07-21 19:35:00,77.9,75.1,29.90,SSE,158,0.0,0.0,91,0.00,,---,0.02,VWS V13.01,2013-07-21 23:35:00,
2013-07-21 19:40:00,77.8,75.0,29.90,SSW,202,0.0,2.0,91,0.00,,---,0.02,VWS V13.01,2013-07-21 23:40:00,
2013-07-21 19:45:00,77.6,74.8,29.90,SSW,211,0.0,0.0,91,0.00,,---,0.02,VWS V13.01,2013-07-21 23:45:00,
2013-07-21 19:50:00,77.6,74.8,29.90,SSW,211,0.0,0.0,91,0.00,,---,0.02,VWS V13.01,2013-07-21 23:50:00,
2013-07-21 19:55:00,77.5,74.7,29.90,SSW,211,0.0,0.0,91,0.00,,---,0.02,VWS V13.01,2013-07-21 23:55:00,
2013-07-21 20:00:00,77.4,74.6,29.90,SSW,211,0.0,0.0,91,0.00,,---,0.02,VWS V13.01,2013-07-22 00:00:00,
2013-07-21 20:05:00,77.4,74.9,29.90,SSW,211,0.0,0.0,92,0.00,,---,0.02,VWS V13.01,2013-07-22 00:05:00,
2013-07-21 20:10:00,77.4,74.9,29.90,SSW,211,0.0,0.0,92,0.00,,---,0.02,VWS V13.01,2013-07-22 00:10:00,
2013-07-21 20:15:00,77.4,74.9,29.91,SSW,211,0.0,0.0,92,0.00,,---,0.02,VWS V13.01,2013-07-22 00:15:00,
2013-07-21 20:20:00,77.3,74.8,29.91,SSW,211,0.0,0.0,92,0.00,,---,0.02,VWS V13.01,2013-07-22 00:20:00,
2013-07-21 20:25:00,77.3,74.8,29.91,SSW,211,1.0,1.0,92,0.00,,---,0.02,VWS V13.01,2013-07-22 00:25:00,
2013-07-21 20:30:00,77.0,74.2,29.91,SSW,211,0.0,0.0,91,0.00,,---,0.02,VWS V13.01,2013-07-22 00:30:00,
2013-07-21 20:35:00,76.7,73.9,29.91,SSW,211,0.0,0.0,91,0.00,,---,0.02,VWS V13.01,2013-07-22 00:35:00,
2013-07-21 20:40:00,76.5,73.7,29.91,SSW,211,0.0,0.0,91,0.00,,---,0.02,VWS V13.01,2013-07-22 00:40:00,
2013-07-21 20:45:00,76.2,73.1,29.92,SSW,211,0.0,0.0,90,0.00,,---,0.02,VWS V13.01,2013-07-22 00:45:00,
2013-07-21 20:50:00,76.0,72.9,29.92,SSW,211,0.0,0.0,90,0.00,,---,0.02,VWS V13.01,2013-07-22 00:50:00,
2013-07-21 20:55:00,75.7,72.6,29.92,SSW,211,0.0,0.0,90,0.00,,---,0.02,VWS V13.01,2013-07-22 00:55:00,
2013-07-21 21:00:00,75.6,72.5,29.91,SSW,211,0.0,0.0,90,0.00,,---,0.02,VWS V13.01,2013-07-22 01:00:00,
2013-07-21 21:05:00,75.5,72.4,29.92,SSW,211,0.0,0.0,90,0.00,,---,0.02,VWS V13.01,2013-07-22 01:05:00,
2013-07-21 21:10:00,75.4,72.6,29.92,SSW,211,0.0,0.0,91,0.00,,---,0.02,VWS V13.01,2013-07-22 01:10:00,
2013-07-21 21:15:00,75.3,72.5,29.91,SSW,211,0.0,0.0,91,0.00,,---,0.02,VWS V13.01,2013-07-22 01:15:00,
2013-07-21 21:20:00,75.3,72.5,29.92,SSW,211,0.0,0.0,91,0.00,,---,0.02,VWS V13.01,2013-07-22 01:20:00,
2013-07-21 21:25:00,75.3,72.5,29.92,SSW,211,0.0,0.0,91,0.00,,---,0.02,VWS V13.01,2013-07-22 01:25:00,
2013-07-21 21:30:00,75.2,72.4,29.91,SSW,211,0.0,0.0,91,0.00,,---,0.02,VWS V13.01,2013-07-22 01:30:00,
2013-07-21 21:35:00,75.1,72.3,29.91,SSW,211,0.0,0.0,91,0.00,,---,0.02,VWS V13.01,2013-07-22 01:35:00,
2013-07-21 21:40:00,75.1,72.6,29.91,SSW,211,0.0,0.0,92,0.00,,---,0.02,VWS V13.01,2013-07-22 01:40:00,
2013-07-21 21:45:00,75.1,72.6,29.91,SSW,211,0.0,0.0,92,0.00,,---,0.02,VWS V13.01,2013-07-22 01:45:00,
2013-07-21 21:50:00,75.1,72.6,29.91,SSW,211,0.0,0.0,92,0.00,,---,0.02,VWS V13.01,2013-07-22 01:50:00,
2013-07-21 21:55:00,75.1,72.6,29.92,SSW,211,0.0,0.0,92,0.00,,---,0.02,VWS V13.01,2013-07-22 01:55:00,
2013-07-21 22:00:00,75.1,72.6,29.92,SSW,211,0.0,0.0,92,0.00,,---,0.02,VWS V13.01,2013-07-22 02:00:00,
2013-07-21 22:05:00,75.1,72.6,29.92,SSW,211,0.0,0.0,92,0.00,,---,0.02,VWS V13.01,2013-07-22 02:05:00,
2013-07-21 22:10:00,75.1,72.6,29.92,SSW,211,0.0,0.0,92,0.00,,---,0.02,VWS V13.01,2013-07-22 02:10:00,
2013-07-21 22:15:00,75.1,72.6,29.92,SSW,211,0.0,0.0,92,0.00,,---,0.02,VWS V13.01,2013-07-22 02:15:00,
2013-07-21 22:20:00,75.1,72.6,29.92,SSW,211,0.0,0.0,92,0.00,,---,0.02,VWS V13.01,2013-07-22 02:20:00,
2013-07-21 22:25:00,75.1,72.6,29.92,SSW,211,0.0,0.0,92,0.00,,---,0.02,VWS V13.01,2013-07-22 02:25:00,
2013-07-21 22:30:00,75.1,72.6,29.92,SSW,211,0.0,0.0,92,0.00,,---,0.02,VWS V13.01,2013-07-22 02:30:00,
2013-07-21 22:35:00,75.1,72.6,29.92,SSW,211,0.0,0.0,92,0.00,,---,0.02,VWS V13.01,2013-07-22 02:35:00,
2013-07-21 22:40:00,75.1,72.6,29.92,SSW,211,0.0,0.0,92,0.00,,---,0.02,VWS V13.01,2013-07-22 02:40:00,
2013-07-21 22:45:00,75.0,72.8,29.93,SSW,211,0.0,0.0,93,0.00,,---,0.02,VWS V13.01,2013-07-22 02:45:00,
2013-07-21 22:50:00,75.0,72.8,29.93,SSW,211,0.0,0.0,93,0.00,,---,0.02,VWS V13.01,2013-07-22 02:50:00,
2013-07-21 22:55:00,75.1,72.9,29.92,SSW,211,0.0,0.0,93,0.00,,---,0.02,VWS V13.01,2013-07-22 02:55:00,
2013-07-21 23:00:00,75.1,72.9,29.92,SSW,211,0.0,0.0,93,0.00,,---,0.02,VWS V13.01,2013-07-22 03:00:00,
2013-07-21 23:05:00,75.0,72.8,29.92,SSW,211,0.0,0.0,93,0.00,,---,0.02,VWS V13.01,2013-07-22 03:05:00,
2013-07-21 23:10:00,75.0,72.8,29.92,SSW,211,0.0,0.0,93,0.00,,---,0.02,VWS V13.01,2013-07-22 03:10:00,
2013-07-21 23:15:00,74.9,72.7,29.92,SSW,211,0.0,0.0,93,0.00,,---,0.02,VWS V13.01,2013-07-22 03:15:00,
2013-07-21 23:20:00,74.9,72.7,29.92,SSW,211,0.0,0.0,93,0.00,,---,0.02,VWS V13.01,2013-07-22 03:20:00,
2013-07-21 23:25:00,74.9,72.7,29.92,SSW,211,0.0,0.0,93,0.00,,---,0.02,VWS V13.01,2013-07-22 03:25:00,
2013-07-21 23:30:00,74.9,72.7,29.92,SSW,211,0.0,0.0,93,0.00,,---,0.02,VWS V13.01,2013-07-22 03:30:00,
2013-07-21 23:35:00,74.9,72.7,29.92,SSW,211,0.0,0.0,93,0.00,,---,0.02,VWS V13.01,2013-07-22 03:35:00,
2013-07-21 23:40:00,74.9,72.7,29.91,SSW,211,0.0,0.0,93,0.00,,---,0.02,VWS V13.01,2013-07-22 03:40:00,
2013-07-21 23:45:00,74.9,72.7,29.91,SSW,211,0.0,0.0,93,0.00,,---,0.02,VWS V13.01,2013-07-22 03:45:00,
2013-07-21 23:50:00,74.9,72.7,29.91,SSW,211,0.0,0.0,93,0.00,,---,0.02,VWS V13.01,2013-07-22 03:50:00,
2013-07-21 23:55:00,74.9,72.7,29.91,SSW,211,0.0,0.0,93,0.00,,---,0.02,VWS V13.01,2013-07-22 03:55:00,